Observation data for Wolfforth on 04/16/2021      Previous  Date  Next       Current Mesonet Observations  Soil Data  Daily Summary Page  Observations in Plain Language
KWOS 160500Z 12008KT 09/09 A2989 RMK A01 T00870087  RH  100%=      5-min Rain = 0
KWOS 160501Z 11008KT 09/09 A2989 RMK A01 T00870087  RH  100%=      5-min Rain = 0
KWOS 160502Z 12008KT 09/09 A2989 RMK A01 T00870087  RH  100%=      5-min Rain = 0
KWOS 160503Z 12008KT 09/09 A2989 RMK A01 T00870087  RH  100%=      5-min Rain = 0
KWOS 160504Z 11009KT 09/09 A2989 RMK A01 T00870087  RH  100%=      5-min Rain = 0
KWOS 160505Z 12009KT 09/09 A2989 RMK A01 T00870087  RH  100%=      5-min Rain = 0
KWOS 160506Z 12008KT 09/09 A2989 RMK A01 T00870087  RH  100%=      5-min Rain = 0
KWOS 160507Z 13009KT 09/09 A2989 RMK A01 T00870087  RH  100%=      5-min Rain = 0
KWOS 160508Z 12008KT 09/09 A2989 RMK A01 T00870087  RH  100%=      5-min Rain = 0
KWOS 160509Z 12008KT 09/09 A2989 RMK A01 T00870087  RH  100%=      5-min Rain = 0
KWOS 160510Z 12007KT 09/09 A2989 RMK A01 T00870087  RH  100%=      5-min Rain = 0
KWOS 160511Z 12007KT 09/09 A2989 RMK A01 T00870087  RH  100%=      5-min Rain = 0
KWOS 160512Z 12007KT 09/09 A2989 RMK A01 T00880088  RH  100%=      5-min Rain = 0
KWOS 160513Z 12008KT 09/09 A2989 RMK A01 T00880088  RH  100%=      5-min Rain = 0
KWOS 160514Z 12007KT 09/09 A2989 RMK A01 T00880088  RH  100%=      5-min Rain = 0
KWOS 160515Z 12007KT 09/09 A2989 RMK A01 T00880088  RH  100%=      5-min Rain = 0
KWOS 160516Z 12006KT 09/09 A2989 RMK A01 T00880088  RH  100%=      5-min Rain = 0.01
KWOS 160517Z 12007KT 09/09 A2989 RMK A01 T00880088  RH  100%=      5-min Rain = 0
KWOS 160518Z 12006KT 09/09 A2989 RMK A01 T00880088  RH  100%=      5-min Rain = 0
KWOS 160519Z 12009KT 09/09 A2989 RMK A01 T00880088  RH  100%=      5-min Rain = 0
KWOS 160520Z 12009KT 09/09 A2989 RMK A01 T00880088  RH  100%=      5-min Rain = 0
KWOS 160521Z 12008KT 09/09 A2989 RMK A01 T00870087  RH  100%=      5-min Rain = 0
KWOS 160522Z 12007KT 09/09 A2989 RMK A01 T00870087  RH  100%=      5-min Rain = 0
KWOS 160523Z 12008KT 09/09 A2989 RMK A01 T00870087  RH  100%=      5-min Rain = 0
KWOS 160524Z 12007KT 09/09 A2989 RMK A01 T00870087  RH  100%=      5-min Rain = 0
KWOS 160525Z 12007KT 09/09 A2989 RMK A01 T00870087  RH  100%=      5-min Rain = 0
KWOS 160526Z 12007KT 09/09 A2989 RMK A01 T00870087  RH  100%=      5-min Rain = 0
KWOS 160527Z 12006KT 09/09 A2989 RMK A01 T00880087  RH  100%=      5-min Rain = 0
KWOS 160528Z 12006KT 09/09 A2989 RMK A01 T00880088  RH  100%=      5-min Rain = 0
KWOS 160529Z 13006KT 09/09 A2989 RMK A01 T00880088  RH  100%=      5-min Rain = 0
KWOS 160530Z 13006KT 09/09 A2989 RMK A01 T00880088  RH  100%=      5-min Rain = 0
KWOS 160531Z 13007KT 09/09 A2989 RMK A01 T00880088  RH  100%=      5-min Rain = 0
KWOS 160532Z 13008KT 09/09 A2989 RMK A01 T00880088  RH  100%=      5-min Rain = 0
KWOS 160533Z 13007KT 09/09 A2988 RMK A01 T00880088  RH  100%=      5-min Rain = 0
KWOS 160534Z 13008KT 09/09 A2988 RMK A01 T00880088  RH  100%=      5-min Rain = 0
KWOS 160535Z 13009KT 09/09 A2988 RMK A01 T00880088  RH  100%=      5-min Rain = 0
KWOS 160536Z 13009KT 09/09 A2988 RMK A01 T00880088  RH  100%=      5-min Rain = 0
KWOS 160537Z 13010KT 09/09 A2988 RMK A01 T00880088  RH  100%=      5-min Rain = 0
KWOS 160538Z 13010KT 09/09 A2988 RMK A01 T00880088  RH  100%=      5-min Rain = 0
KWOS 160539Z 13010KT 09/09 A2988 RMK A01 T00880088  RH  100%=      5-min Rain = 0
KWOS 160540Z 13010KT 09/09 A2988 RMK A01 T00880088  RH  100%=      5-min Rain = 0
KWOS 160541Z 13009KT 09/09 A2988 RMK A01 T00870087  RH  100%=      5-min Rain = 0
KWOS 160542Z 13010KT 09/09 A2988 RMK A01 T00870087  RH  100%=      5-min Rain = 0
KWOS 160543Z 13010KT 09/09 A2988 RMK A01 T00870087  RH  100%=      5-min Rain = 0
KWOS 160544Z 13010KT 09/09 A2988 RMK A01 T00870087  RH  100%=      5-min Rain = 0
KWOS 160545Z 13008KT 09/09 A2988 RMK A01 T00870087  RH  100%=      5-min Rain = 0
KWOS 160546Z 13009KT 09/09 A2988 RMK A01 T00870087  RH  100%=      5-min Rain = 0.01
KWOS 160547Z 13008KT 09/09 A2988 RMK A01 T00870087  RH  100%=      5-min Rain = 0
KWOS 160548Z 13009KT 09/09 A2988 RMK A01 T00870087  RH  100%=      5-min Rain = 0
KWOS 160549Z 13010KT 09/09 A2988 RMK A01 T00870087  RH  100%=      5-min Rain = 0
KWOS 160550Z 13008KT 09/09 A2988 RMK A01 T00870087  RH  100%=      5-min Rain = 0
KWOS 160551Z 13008KT 09/09 A2988 RMK A01 T00870087  RH  100%=      5-min Rain = 0
KWOS 160552Z 13008KT 09/09 A2988 RMK A01 T00870087  RH  100%=      5-min Rain = 0
KWOS 160553Z 13008KT 09/09 A2988 RMK A01 T00870087  RH  100%=      5-min Rain = 0
KWOS 160554Z 12009KT 09/09 A2988 RMK A01 T00870087  RH  100%=      5-min Rain = 0
KWOS 160555Z 13008KT 09/09 A2988 RMK A01 T00870087  RH  100%=      5-min Rain = 0
KWOS 160556Z 13008KT 09/09 A2988 RMK A01 T00870087  RH  100%=      5-min Rain = 0
KWOS 160557Z 13009KT 09/09 A2988 RMK A01 T00870087  RH  100%=      5-min Rain = 0
KWOS 160558Z 13010KT 09/09 A2988 RMK A01 T00870087  RH  100%=      5-min Rain = 0
KWOS 160559Z 13007KT 09/09 A2988 RMK A01 T00870087  RH  100%=      5-min Rain = 0
KWOS 160600Z 12009KT 09/09 A2988 RMK A01 T00880088  RH  100%=      5-min Rain = 0
KWOS 160601Z 12009KT 09/09 A2988 RMK A01 T00880088  RH  100%=      5-min Rain = 0
KWOS 160602Z 13009KT 09/09 A2988 RMK A01 T00880088  RH  100%=      5-min Rain = 0
KWOS 160603Z 13008KT 09/09 A2988 RMK A01 T00880088  RH  100%=      5-min Rain = 0
KWOS 160604Z 12008KT 09/09 A2988 RMK A01 T00880088  RH  100%=      5-min Rain = 0
KWOS 160605Z 12009KT 09/09 A2988 RMK A01 T00880088  RH  100%=      5-min Rain = 0
KWOS 160606Z 12008KT 09/09 A2988 RMK A01 T00880088  RH  100%=      5-min Rain = 0
KWOS 160607Z 12009KT 09/09 A2988 RMK A01 T00880088  RH  100%=      5-min Rain = 0
KWOS 160608Z 12009KT 09/09 A2987 RMK A01 T00880088  RH  100%=      5-min Rain = 0
KWOS 160609Z 12009KT 09/09 A2987 RMK A01 T00880088  RH  100%=      5-min Rain = 0
KWOS 160610Z 12008KT 09/09 A2987 RMK A01 T00880088  RH  100%=      5-min Rain = 0
KWOS 160611Z 11008KT 09/09 A2987 RMK A01 T00880088  RH  100%=      5-min Rain = 0
KWOS 160612Z 12008KT 09/09 A2987 RMK A01 T00880088  RH  100%=      5-min Rain = 0
KWOS 160613Z 12008KT 09/09 A2987 RMK A01 T00880088  RH  100%=      5-min Rain = 0
KWOS 160614Z 12010KT 09/09 A2987 RMK A01 T00880088  RH  100%=      5-min Rain = 0
KWOS 160615Z 11010KT 09/09 A2987 RMK A01 T00880088  RH  100%=      5-min Rain = 0
KWOS 160616Z 12009KT 09/09 A2987 RMK A01 T00880088  RH  100%=      5-min Rain = 0
KWOS 160617Z 11009KT 09/09 A2987 RMK A01 T00880088  RH  100%=      5-min Rain = 0
KWOS 160618Z 11009KT 09/09 A2987 RMK A01 T00880088  RH  100%=      5-min Rain = 0
KWOS 160619Z 12011KT 09/09 A2987 RMK A01 T00880088  RH  100%=      5-min Rain = 0
KWOS 160620Z 12009KT 09/09 A2987 RMK A01 T00870087  RH  100%=      5-min Rain = 0
KWOS 160621Z 11009KT 09/09 A2987 RMK A01 T00870087  RH  100%=      5-min Rain = 0
KWOS 160622Z 11011KT 09/09 A2987 RMK A01 T00870087  RH  100%=      5-min Rain = 0
KWOS 160623Z 12011KT 09/09 A2987 RMK A01 T00870087  RH  100%=      5-min Rain = 0
KWOS 160624Z 12009KT 09/09 A2987 RMK A01 T00870087  RH  100%=      5-min Rain = 0
KWOS 160625Z 11008KT 09/09 A2987 RMK A01 T00870087  RH  100%=      5-min Rain = 0
KWOS 160626Z 12010KT 09/09 A2987 RMK A01 T00870087  RH  100%=      5-min Rain = 0
KWOS 160627Z 12010KT 09/09 A2987 RMK A01 T00870087  RH  100%=      5-min Rain = 0
KWOS 160628Z 12010KT 09/09 A2987 RMK A01 T00870087  RH  100%=      5-min Rain = 0
KWOS 160629Z 12009KT 09/09 A2987 RMK A01 T00870087  RH  100%=      5-min Rain = 0
KWOS 160630Z 12009KT 09/09 A2986 RMK A01 T00870087  RH  100%=      5-min Rain = 0
KWOS 160631Z 13010KT 09/09 A2986 RMK A01 T00870087  RH  100%=      5-min Rain = 0
KWOS 160632Z 13009KT 09/09 A2986 RMK A01 T00870087  RH  100%=      5-min Rain = 0
KWOS 160633Z 12011KT 09/09 A2986 RMK A01 T00870087  RH  100%=      5-min Rain = 0
KWOS 160634Z 13009KT 09/09 A2986 RMK A01 T00870087  RH  100%=      5-min Rain = 0
KWOS 160635Z 12010KT 09/09 A2986 RMK A01 T00870087  RH  100%=      5-min Rain = 0
KWOS 160636Z 13009KT 09/09 A2987 RMK A01 T00870087  RH  100%=      5-min Rain = 0
KWOS 160637Z 13009KT 09/09 A2986 RMK A01 T00870087  RH  100%=      5-min Rain = 0
KWOS 160638Z 13008KT 09/09 A2986 RMK A01 T00870087  RH  100%=      5-min Rain = 0
KWOS 160639Z 13009KT 09/09 A2986 RMK A01 T00870087  RH  100%=      5-min Rain = 0
KWOS 160640Z 12008KT 09/09 A2986 RMK A01 T00870087  RH  100%=      5-min Rain = 0
KWOS 160641Z 12007KT 09/09 A2986 RMK A01 T00870087  RH  100%=      5-min Rain = 0
KWOS 160642Z 12006KT 09/09 A2986 RMK A01 T00880087  RH  100%=      5-min Rain = 0
KWOS 160643Z 12006KT 09/09 A2987 RMK A01 T00880088  RH  100%=      5-min Rain = 0
KWOS 160644Z 12008KT 09/09 A2986 RMK A01 T00880088  RH  100%=      5-min Rain = 0
KWOS 160645Z 12008KT 09/09 A2986 RMK A01 T00880088  RH  100%=      5-min Rain = 0
KWOS 160646Z 13008KT 09/09 A2986 RMK A01 T00880088  RH  100%=      5-min Rain = 0
KWOS 160647Z 12007KT 09/09 A2986 RMK A01 T00880088  RH  100%=      5-min Rain = 0
KWOS 160648Z 12008KT 09/09 A2986 RMK A01 T00880088  RH  100%=      5-min Rain = 0
KWOS 160649Z 12008KT 09/09 A2986 RMK A01 T00880088  RH  100%=      5-min Rain = 0
KWOS 160650Z 11007KT 09/09 A2986 RMK A01 T00880088  RH  100%=      5-min Rain = 0
KWOS 160651Z 12008KT 09/09 A2986 RMK A01 T00880088  RH  100%=      5-min Rain = 0
KWOS 160652Z 11009KT 09/09 A2986 RMK A01 T00870087  RH  100%=      5-min Rain = 0
KWOS 160653Z 12008KT 09/09 A2986 RMK A01 T00870087  RH  100%=      5-min Rain = 0
KWOS 160654Z 12008KT 09/09 A2986 RMK A01 T00870087  RH  100%=      5-min Rain = 0
KWOS 160655Z 12008KT 09/09 A2986 RMK A01 T00870087  RH  100%=      5-min Rain = 0
KWOS 160656Z 12006KT 09/09 A2986 RMK A01 T00870087  RH  100%=      5-min Rain = 0
KWOS 160657Z 11006KT 09/09 A2986 RMK A01 T00870087  RH  100%=      5-min Rain = 0
KWOS 160658Z 12008KT 09/09 A2986 RMK A01 T00870087  RH  100%=      5-min Rain = 0
KWOS 160659Z 12007KT 09/09 A2986 RMK A01 T00870087  RH  100%=      5-min Rain = 0
KWOS 160700Z 12009KT 09/09 A2986 RMK A01 T00870087  RH  100%=      5-min Rain = 0
KWOS 160701Z 13010KT 09/09 A2986 RMK A01 T00870087  RH  100%=      5-min Rain = 0
KWOS 160702Z 12010KT 09/09 A2986 RMK A01 T00870087  RH  100%=      5-min Rain = 0
KWOS 160703Z 13010KT 09/09 A2986 RMK A01 T00870087  RH  100%=      5-min Rain = 0
KWOS 160704Z 13010KT 09/09 A2986 RMK A01 T00870087  RH  100%=      5-min Rain = 0
KWOS 160705Z 13009KT 09/09 A2986 RMK A01 T00870087  RH  100%=      5-min Rain = 0
KWOS 160706Z 13009KT 09/09 A2986 RMK A01 T00870087  RH  100%=      5-min Rain = 0
KWOS 160707Z 14007KT 09/09 A2986 RMK A01 T00870087  RH  100%=      5-min Rain = 0
KWOS 160708Z 14006KT 09/09 A2986 RMK A01 T00870087  RH  100%=      5-min Rain = 0
KWOS 160709Z 14006KT 09/09 A2986 RMK A01 T00870087  RH  100%=      5-min Rain = 0
KWOS 160710Z 14005G10KT 09/09 A2986 RMK A01 T00870087  RH  100%=      5-min Rain = 0
KWOS 160711Z 14009KT 09/09 A2986 RMK A01 T00870087  RH  100%=      5-min Rain = 0
KWOS 160712Z 14008KT 09/09 A2986 RMK A01 T00870087  RH  100%=      5-min Rain = 0
KWOS 160713Z 14007KT 09/09 A2986 RMK A01 T00870087  RH  100%=      5-min Rain = 0
KWOS 160714Z 14006KT 09/09 A2986 RMK A01 T00870087  RH  100%=      5-min Rain = 0
KWOS 160715Z 14006KT 09/09 A2986 RMK A01 T00870087  RH  100%=      5-min Rain = 0
KWOS 160716Z 14007KT 09/09 A2986 RMK A01 T00870087  RH  100%=      5-min Rain = 0
KWOS 160717Z 13006KT 09/09 A2986 RMK A01 T00870087  RH  100%=      5-min Rain = 0
KWOS 160718Z 14007KT 09/09 A2986 RMK A01 T00870087  RH  100%=      5-min Rain = 0
KWOS 160719Z 14007KT 09/09 A2986 RMK A01 T00870087  RH  100%=      5-min Rain = 0
KWOS 160720Z 14007KT 09/09 A2986 RMK A01 T00870087  RH  100%=      5-min Rain = 0
KWOS 160721Z 14006KT 09/09 A2986 RMK A01 T00870087  RH  100%=      5-min Rain = 0
KWOS 160722Z 13006KT 09/09 A2986 RMK A01 T00870087  RH  100%=      5-min Rain = 0
KWOS 160723Z 14006KT 09/09 A2986 RMK A01 T00870087  RH  100%=      5-min Rain = 0
KWOS 160724Z 14006KT 09/09 A2986 RMK A01 T00870087  RH  100%=      5-min Rain = 0
KWOS 160725Z 13005KT 09/09 A2986 RMK A01 T00870087  RH  100%=      5-min Rain = 0
KWOS 160726Z 14006KT 09/09 A2986 RMK A01 T00880088  RH  100%=      5-min Rain = 0
KWOS 160727Z 14007KT 09/09 A2986 RMK A01 T00880088  RH  100%=      5-min Rain = 0
KWOS 160728Z 14005KT 09/09 A2986 RMK A01 T00880088  RH  100%=      5-min Rain = 0
KWOS 160729Z 14005KT 09/09 A2986 RMK A01 T00880088  RH  100%=      5-min Rain = 0
KWOS 160730Z 14004KT 09/09 A2986 RMK A01 T00880088  RH  100%=      5-min Rain = 0
KWOS 160731Z 14005KT 09/09 A2986 RMK A01 T00880088  RH  100%=      5-min Rain = 0
KWOS 160732Z 14006KT 09/09 A2986 RMK A01 T00880088  RH  100%=      5-min Rain = 0
KWOS 160733Z 14006KT 09/09 A2986 RMK A01 T00880088  RH  100%=      5-min Rain = 0
KWOS 160734Z 14005KT 09/09 A2986 RMK A01 T00880088  RH  100%=      5-min Rain = 0
KWOS 160735Z 14005KT 09/09 A2985 RMK A01 T00880088  RH  100%=      5-min Rain = 0
KWOS 160736Z 14005KT 09/09 A2986 RMK A01 T00880088  RH  100%=      5-min Rain = 0
KWOS 160737Z 14005KT 09/09 A2986 RMK A01 T00880088  RH  100%=      5-min Rain = 0
KWOS 160738Z 14005KT 09/09 A2985 RMK A01 T00880088  RH  100%=      5-min Rain = 0
KWOS 160739Z 14006KT 09/09 A2985 RMK A01 T00880088  RH  100%=      5-min Rain = 0
KWOS 160740Z 14006KT 09/09 A2985 RMK A01 T00880088  RH  100%=      5-min Rain = 0
KWOS 160741Z 14006KT 09/09 A2985 RMK A01 T00880088  RH  100%=      5-min Rain = 0
KWOS 160742Z 14006KT 09/09 A2985 RMK A01 T00880088  RH  100%=      5-min Rain = 0
KWOS 160743Z 14007KT 09/09 A2985 RMK A01 T00880088  RH  100%=      5-min Rain = 0
KWOS 160744Z 15006KT 09/09 A2985 RMK A01 T00880088  RH  100%=      5-min Rain = 0
KWOS 160745Z 15007KT 09/09 A2985 RMK A01 T00880088  RH  100%=      5-min Rain = 0
KWOS 160746Z 16008KT 09/09 A2985 RMK A01 T00880088  RH  100%=      5-min Rain = 0
KWOS 160747Z 15008KT 09/09 A2985 RMK A01 T00880088  RH  100%=      5-min Rain = 0
KWOS 160748Z 15007KT 09/09 A2985 RMK A01 T00880088  RH  100%=      5-min Rain = 0
KWOS 160749Z 15007KT 09/09 A2985 RMK A01 T00880088  RH  100%=      5-min Rain = 0
KWOS 160750Z 16008KT 09/09 A2985 RMK A01 T00880088  RH  100%=      5-min Rain = 0
KWOS 160751Z 15008KT 09/09 A2985 RMK A01 T00880088  RH  100%=      5-min Rain = 0
KWOS 160752Z 15007KT 09/09 A2985 RMK A01 T00880088  RH  100%=      5-min Rain = 0
KWOS 160753Z 15007KT 09/09 A2985 RMK A01 T00880088  RH  100%=      5-min Rain = 0
KWOS 160754Z 15005KT 09/09 A2985 RMK A01 T00880088  RH  100%=      5-min Rain = 0
KWOS 160755Z 15007KT 09/09 A2985 RMK A01 T00880088  RH  100%=      5-min Rain = 0
KWOS 160756Z 15006KT 09/09 A2985 RMK A01 T00880088  RH  100%=      5-min Rain = 0
KWOS 160757Z 15007KT 09/09 A2985 RMK A01 T00880088  RH  100%=      5-min Rain = 0
KWOS 160758Z 15006KT 09/09 A2985 RMK A01 T00880088  RH  100%=      5-min Rain = 0
KWOS 160759Z 16006KT 09/09 A2985 RMK A01 T00880088  RH  100%=      5-min Rain = 0
KWOS 160800Z 15006KT 09/09 A2985 RMK A01 T00880088  RH  100%=      5-min Rain = 0
KWOS 160801Z 16007KT 09/09 A2985 RMK A01 T00880088  RH  100%=      5-min Rain = 0
KWOS 160802Z 15007KT 09/09 A2985 RMK A01 T00880088  RH  100%=      5-min Rain = 0
KWOS 160803Z 16007KT 09/09 A2985 RMK A01 T00880088  RH  100%=      5-min Rain = 0
KWOS 160804Z 16007KT 09/09 A2985 RMK A01 T00880088  RH  100%=      5-min Rain = 0
KWOS 160805Z 15006KT 09/09 A2985 RMK A01 T00880088  RH  100%=      5-min Rain = 0
KWOS 160806Z 16006KT 09/09 A2985 RMK A01 T00880088  RH  100%=      5-min Rain = 0
KWOS 160807Z 16006KT 09/09 A2985 RMK A01 T00880088  RH  100%=      5-min Rain = 0
KWOS 160808Z 16007KT 09/09 A2985 RMK A01 T00880088  RH  100%=      5-min Rain = 0
KWOS 160809Z 16007KT 09/09 A2985 RMK A01 T00880088  RH  100%=      5-min Rain = 0
KWOS 160810Z 16007KT 09/09 A2985 RMK A01 T00880088  RH  100%=      5-min Rain = 0
KWOS 160811Z 16006KT 09/09 A2985 RMK A01 T00880088  RH  100%=      5-min Rain = 0
KWOS 160812Z 16007KT 09/09 A2984 RMK A01 T00880088  RH  100%=      5-min Rain = 0
KWOS 160813Z 16006KT 09/09 A2984 RMK A01 T00880088  RH  100%=      5-min Rain = 0
KWOS 160814Z 17005KT 09/09 A2984 RMK A01 T00880088  RH  100%=      5-min Rain = 0
KWOS 160815Z 16006KT 09/09 A2984 RMK A01 T00880088  RH  100%=      5-min Rain = 0
KWOS 160816Z 16006KT 09/09 A2984 RMK A01 T00880088  RH  100%=      5-min Rain = 0
KWOS 160817Z 16007KT 09/09 A2984 RMK A01 T00880088  RH  100%=      5-min Rain = 0
KWOS 160818Z 16007KT 09/09 A2984 RMK A01 T00880088  RH  100%=      5-min Rain = 0
KWOS 160819Z 16007KT 09/09 A2984 RMK A01 T00880088  RH  100%=      5-min Rain = 0
KWOS 160820Z 17007KT 09/09 A2984 RMK A01 T00880088  RH  100%=      5-min Rain = 0
KWOS 160821Z 17006KT 09/09 A2984 RMK A01 T00880088  RH  100%=      5-min Rain = 0
KWOS 160822Z 17006KT 09/09 A2984 RMK A01 T00880088  RH  100%=      5-min Rain = 0
KWOS 160823Z 17006KT 09/09 A2984 RMK A01 T00880088  RH  100%=      5-min Rain = 0
KWOS 160824Z 17007KT 09/09 A2984 RMK A01 T00890089  RH  100%=      5-min Rain = 0
KWOS 160825Z 17007KT 09/09 A2984 RMK A01 T00890089  RH  100%=      5-min Rain = 0
KWOS 160826Z 17007KT 09/09 A2984 RMK A01 T00890089  RH  100%=      5-min Rain = 0
KWOS 160827Z 17007KT 09/09 A2984 RMK A01 T00890089  RH  100%=      5-min Rain = 0
KWOS 160828Z 16006KT 09/09 A2983 RMK A01 T00890089  RH  100%=      5-min Rain = 0
KWOS 160829Z 17005KT 09/09 A2984 RMK A01 T00890089  RH  100%=      5-min Rain = 0
KWOS 160830Z 17006KT 09/09 A2984 RMK A01 T00890089  RH  100%=      5-min Rain = 0
KWOS 160831Z 16006KT 09/09 A2984 RMK A01 T00890089  RH  100%=      5-min Rain = 0
KWOS 160832Z 16006KT 09/09 A2984 RMK A01 T00890089  RH  100%=      5-min Rain = 0
KWOS 160833Z 17004KT 09/09 A2984 RMK A01 T00890089  RH  100%=      5-min Rain = 0
KWOS 160834Z 17004KT 09/09 A2984 RMK A01 T00890089  RH  100%=      5-min Rain = 0
KWOS 160835Z 16002KT 09/09 A2984 RMK A01 T00890089  RH  100%=      5-min Rain = 0
KWOS 160836Z 34000KT 09/09 A2985 RMK A01 T00890089  RH  100%=      5-min Rain = 0
KWOS 160837Z 33003KT 09/09 A2986 RMK A01 T00890089  RH  100%=      5-min Rain = 0
KWOS 160838Z 34006KT 09/09 A2986 RMK A01 T00890089  RH  100%=      5-min Rain = 0
KWOS 160839Z 34009KT 09/09 A2987 RMK A01 T00890089  RH  100%=      5-min Rain = 0
KWOS 160840Z 34010KT 09/09 A2987 RMK A01 T00900089  RH  100%=      5-min Rain = 0
KWOS 160841Z 34010KT 09/09 A2988 RMK A01 T00900089  RH  100%=      5-min Rain = 0
KWOS 160842Z 34011KT 09/09 A2988 RMK A01 T00900090  RH  100%=      5-min Rain = 0
KWOS 160843Z 34010KT 09/09 A2988 RMK A01 T00900090  RH  100%=      5-min Rain = 0
KWOS 160844Z 34008KT 09/09 A2987 RMK A01 T00900090  RH  100%=      5-min Rain = 0
KWOS 160845Z 35006KT 09/09 A2987 RMK A01 T00900090  RH  100%=      5-min Rain = 0
KWOS 160846Z 35006KT 09/09 A2987 RMK A01 T00900090  RH  100%=      5-min Rain = 0
KWOS 160847Z 35006KT 09/09 A2987 RMK A01 T00900090  RH  100%=      5-min Rain = 0
KWOS 160848Z 34007KT 09/09 A2987 RMK A01 T00900090  RH  100%=      5-min Rain = 0
KWOS 160849Z 34007KT 09/09 A2987 RMK A01 T00900090  RH  100%=      5-min Rain = 0
KWOS 160850Z 34008KT 09/09 A2987 RMK A01 T00900090  RH  100%=      5-min Rain = 0
KWOS 160851Z 34009KT 09/09 A2988 RMK A01 T00900090  RH  100%=      5-min Rain = 0
KWOS 160852Z 34010KT 09/09 A2988 RMK A01 T00900090  RH  100%=      5-min Rain = 0
KWOS 160853Z 35010KT 09/09 A2988 RMK A01 T00900090  RH  100%=      5-min Rain = 0
KWOS 160854Z 35008KT 09/09 A2988 RMK A01 T00900090  RH  100%=      5-min Rain = 0
KWOS 160855Z 36007KT 09/09 A2987 RMK A01 T00900090  RH  100%=      5-min Rain = 0
KWOS 160856Z 36007KT 09/09 A2987 RMK A01 T00900090  RH  100%=      5-min Rain = 0
KWOS 160857Z 00006KT 09/09 A2987 RMK A01 T00900090  RH  100%=      5-min Rain = 0
KWOS 160858Z 36007KT 09/09 A2987 RMK A01 T00900090  RH  100%=      5-min Rain = 0
KWOS 160859Z 35007KT 09/09 A2987 RMK A01 T00900090  RH  100%=      5-min Rain = 0
KWOS 160900Z 35007KT 09/09 A2988 RMK A01 T00900090  RH  100%=      5-min Rain = 0
KWOS 160901Z 34007KT 09/09 A2988 RMK A01 T00900090  RH  100%=      5-min Rain = 0
KWOS 160902Z 34008KT 09/09 A2988 RMK A01 T00900090  RH  100%=      5-min Rain = 0
KWOS 160903Z 35008KT 09/09 A2988 RMK A01 T00900090  RH  100%=      5-min Rain = 0
KWOS 160904Z 35007KT 09/09 A2987 RMK A01 T00900090  RH  100%=      5-min Rain = 0
KWOS 160905Z 35005KT 09/09 A2987 RMK A01 T00900090  RH  100%=      5-min Rain = 0
KWOS 160906Z 00005KT 09/09 A2987 RMK A01 T00900090  RH  100%=      5-min Rain = 0
KWOS 160907Z 00006KT 09/09 A2987 RMK A01 T00900090  RH  100%=      5-min Rain = 0
KWOS 160908Z 36006KT 09/09 A2987 RMK A01 T00900090  RH  100%=      5-min Rain = 0
KWOS 160909Z 35008KT 09/09 A2987 RMK A01 T00900090  RH  100%=      5-min Rain = 0
KWOS 160910Z 35007KT 09/09 A2988 RMK A01 T00900090  RH  100%=      5-min Rain = 0
KWOS 160911Z 35007KT 09/09 A2988 RMK A01 T00900090  RH  100%=      5-min Rain = 0
KWOS 160912Z 36006KT 09/09 A2987 RMK A01 T00900090  RH  100%=      5-min Rain = 0
KWOS 160913Z 00007KT 09/09 A2987 RMK A01 T00900090  RH  100%=      5-min Rain = 0
KWOS 160914Z 01006KT 09/09 A2987 RMK A01 T00900090  RH  100%=      5-min Rain = 0
KWOS 160915Z 00006KT 09/09 A2987 RMK A01 T00900090  RH  100%=      5-min Rain = 0
KWOS 160916Z 01006KT 09/09 A2987 RMK A01 T00900090  RH  100%=      5-min Rain = 0
KWOS 160917Z 01005KT 09/09 A2987 RMK A01 T00900090  RH  100%=      5-min Rain = 0
KWOS 160918Z 02005KT 09/09 A2987 RMK A01 T00900090  RH  100%=      5-min Rain = 0
KWOS 160919Z 02005KT 09/09 A2987 RMK A01 T00900090  RH  100%=      5-min Rain = 0
KWOS 160920Z 02005KT 09/09 A2987 RMK A01 T00900090  RH  100%=      5-min Rain = 0
KWOS 160921Z 01005KT 09/09 A2987 RMK A01 T00900090  RH  100%=      5-min Rain = 0
KWOS 160922Z 01004KT 09/09 A2987 RMK A01 T00900090  RH  100%=      5-min Rain = 0
KWOS 160923Z 01004KT 09/09 A2987 RMK A01 T00900090  RH  100%=      5-min Rain = 0
KWOS 160924Z 02003KT 09/09 A2986 RMK A01 T00900090  RH  100%=      5-min Rain = 0
KWOS 160925Z 03004KT 09/09 A2986 RMK A01 T00900090  RH  100%=      5-min Rain = 0
KWOS 160926Z 02004KT 09/09 A2987 RMK A01 T00900090  RH  100%=      5-min Rain = 0
KWOS 160927Z 02004KT 09/09 A2987 RMK A01 T00900090  RH  100%=      5-min Rain = 0
KWOS 160928Z 01005KT 09/09 A2987 RMK A01 T00900090  RH  100%=      5-min Rain = 0
KWOS 160929Z 01005KT 09/09 A2987 RMK A01 T00900090  RH  100%=      5-min Rain = 0
KWOS 160930Z 01005KT 09/09 A2987 RMK A01 T00900090  RH  100%=      5-min Rain = 0
KWOS 160931Z 01004KT 09/09 A2987 RMK A01 T00900090  RH  100%=      5-min Rain = 0
KWOS 160932Z 01005KT 09/09 A2987 RMK A01 T00900090  RH  100%=      5-min Rain = 0
KWOS 160933Z 01004KT 09/09 A2987 RMK A01 T00900090  RH  100%=      5-min Rain = 0
KWOS 160934Z 01004KT 09/09 A2987 RMK A01 T00900090  RH  100%=      5-min Rain = 0
KWOS 160935Z 01004KT 09/09 A2987 RMK A01 T00900090  RH  100%=      5-min Rain = 0
KWOS 160936Z 01005KT 09/09 A2987 RMK A01 T00900090  RH  100%=      5-min Rain = 0
KWOS 160937Z 01005KT 09/09 A2987 RMK A01 T00900090  RH  100%=      5-min Rain = 0
KWOS 160938Z 01005KT 09/09 A2987 RMK A01 T00900090  RH  100%=      5-min Rain = 0
KWOS 160939Z 01005KT 09/09 A2987 RMK A01 T00900090  RH  100%=      5-min Rain = 0
KWOS 160940Z 01005KT 09/09 A2987 RMK A01 T00900090  RH  100%=      5-min Rain = 0
KWOS 160941Z 01006KT 09/09 A2987 RMK A01 T00900090  RH  100%=      5-min Rain = 0
KWOS 160942Z 01007KT 09/09 A2987 RMK A01 T00910090  RH  100%=      5-min Rain = 0
KWOS 160943Z 01008KT 09/09 A2987 RMK A01 T00910090  RH  100%=      5-min Rain = 0
KWOS 160944Z 01009KT 09/09 A2988 RMK A01 T00910090  RH  100%=      5-min Rain = 0
KWOS 160945Z 00009KT 09/09 A2988 RMK A01 T00910090  RH  100%=      5-min Rain = 0
KWOS 160946Z 00010KT 09/09 A2988 RMK A01 T00910090  RH  100%=      5-min Rain = 0
KWOS 160947Z 00009KT 09/09 A2988 RMK A01 T00910090  RH  100%=      5-min Rain = 0
KWOS 160948Z 01009KT 09/09 A2988 RMK A01 T00910090  RH  100%=      5-min Rain = 0
KWOS 160949Z 00008KT 09/09 A2988 RMK A01 T00910090  RH  100%=      5-min Rain = 0
KWOS 160950Z 36008KT 09/09 A2988 RMK A01 T00910090  RH  100%=      5-min Rain = 0
KWOS 160951Z 36008KT 09/09 A2988 RMK A01 T00910090  RH  100%=      5-min Rain = 0
KWOS 160952Z 00009KT 09/09 A2988 RMK A01 T00910090  RH  100%=      5-min Rain = 0
KWOS 160953Z 00008KT 09/09 A2988 RMK A01 T00910090  RH  100%=      5-min Rain = 0
KWOS 160954Z 00008KT 09/09 A2988 RMK A01 T00910090  RH  100%=      5-min Rain = 0
KWOS 160955Z 36009KT 09/09 A2988 RMK A01 T00910090  RH  100%=      5-min Rain = 0
KWOS 160956Z 36010KT 09/09 A2988 RMK A01 T00910090  RH  100%=      5-min Rain = 0
KWOS 160957Z 36010KT 09/09 A2988 RMK A01 T00910090  RH  100%=      5-min Rain = 0
KWOS 160958Z 00009KT 09/09 A2988 RMK A01 T00910090  RH  100%=      5-min Rain = 0
KWOS 160959Z 00009KT 09/09 A2988 RMK A01 T00910090  RH  100%=      5-min Rain = 0
KWOS 161000Z 36009KT 09/09 A2988 RMK A01 T00910090  RH  100%=      5-min Rain = 0
KWOS 161001Z 36009KT 09/09 A2988 RMK A01 T00910090  RH  100%=      5-min Rain = 0
KWOS 161002Z 36011KT 09/09 A2988 RMK A01 T00910090  RH  100%=      5-min Rain = 0
KWOS 161003Z 00010KT 09/09 A2988 RMK A01 T00910090  RH  100%=      5-min Rain = 0
KWOS 161004Z 00009KT 09/09 A2988 RMK A01 T00900090  RH  100%=      5-min Rain = 0
KWOS 161005Z 00009KT 09/09 A2988 RMK A01 T00910090  RH  100%=      5-min Rain = 0
KWOS 161006Z 01009KT 09/09 A2988 RMK A01 T00910090  RH  100%=      5-min Rain = 0
KWOS 161007Z 00009KT 09/09 A2988 RMK A01 T00910090  RH  100%=      5-min Rain = 0
KWOS 161008Z 36008KT 09/09 A2988 RMK A01 T00910090  RH  100%=      5-min Rain = 0
KWOS 161009Z 00008KT 09/09 A2988 RMK A01 T00910090  RH  100%=      5-min Rain = 0
KWOS 161010Z 00008KT 09/09 A2988 RMK A01 T00910090  RH  100%=      5-min Rain = 0
KWOS 161011Z 00008KT 09/09 A2988 RMK A01 T00910090  RH  100%=      5-min Rain = 0
KWOS 161012Z 00008KT 09/09 A2988 RMK A01 T00910090  RH  100%=      5-min Rain = 0
KWOS 161013Z 00008KT 09/09 A2988 RMK A01 T00910090  RH  100%=      5-min Rain = 0
KWOS 161014Z 00008KT 09/09 A2988 RMK A01 T00910090  RH  100%=      5-min Rain = 0
KWOS 161015Z 00010KT 09/09 A2988 RMK A01 T00910090  RH  100%=      5-min Rain = 0
KWOS 161016Z 01010KT 09/09 A2988 RMK A01 T00910090  RH  100%=      5-min Rain = 0
KWOS 161017Z 01009KT 09/09 A2988 RMK A01 T00910090  RH  100%=      5-min Rain = 0
KWOS 161018Z 01008KT 09/09 A2988 RMK A01 T00910090  RH  100%=      5-min Rain = 0
KWOS 161019Z 00010KT 09/09 A2988 RMK A01 T00910090  RH  100%=      5-min Rain = 0
KWOS 161020Z 01010KT 09/09 A2988 RMK A01 T00910090  RH  100%=      5-min Rain = 0
KWOS 161021Z 01011KT 09/09 A2988 RMK A01 T00910090  RH  100%=      5-min Rain = 0
KWOS 161022Z 01011KT 09/09 A2988 RMK A01 T00910090  RH  100%=      5-min Rain = 0
KWOS 161023Z 01010KT 09/09 A2988 RMK A01 T00910090  RH  100%=      5-min Rain = 0
KWOS 161024Z 01010KT 09/09 A2988 RMK A01 T00910090  RH  100%=      5-min Rain = 0
KWOS 161025Z 01009KT 09/09 A2988 RMK A01 T00910090  RH  100%=      5-min Rain = 0
KWOS 161026Z 01008KT 09/09 A2988 RMK A01 T00910090  RH  100%=      5-min Rain = 0
KWOS 161027Z 01008KT 09/09 A2988 RMK A01 T00910090  RH  100%=      5-min Rain = 0
KWOS 161028Z 01008KT 09/09 A2988 RMK A01 T00910090  RH  100%=      5-min Rain = 0
KWOS 161029Z 01009KT 09/09 A2988 RMK A01 T00910090  RH  100%=      5-min Rain = 0
KWOS 161030Z 01009KT 09/09 A2988 RMK A01 T00910090  RH  100%=      5-min Rain = 0
KWOS 161031Z 01009KT 09/09 A2988 RMK A01 T00910090  RH  100%=      5-min Rain = 0
KWOS 161032Z 01011KT 09/09 A2988 RMK A01 T00910090  RH  100%=      5-min Rain = 0
KWOS 161033Z 01011KT 09/09 A2988 RMK A01 T00910090  RH  100%=      5-min Rain = 0
KWOS 161034Z 01009KT 09/09 A2988 RMK A01 T00910090  RH  100%=      5-min Rain = 0
KWOS 161035Z 01008KT 09/09 A2988 RMK A01 T00910090  RH  100%=      5-min Rain = 0
KWOS 161036Z 01008KT 09/09 A2988 RMK A01 T00910090  RH  100%=      5-min Rain = 0
KWOS 161037Z 01009KT 09/09 A2988 RMK A01 T00910090  RH  100%=      5-min Rain = 0
KWOS 161038Z 01010KT 09/09 A2988 RMK A01 T00910090  RH  100%=      5-min Rain = 0
KWOS 161039Z 01009KT 09/09 A2988 RMK A01 T00910090  RH  100%=      5-min Rain = 0
KWOS 161040Z 01008KT 09/09 A2988 RMK A01 T00910090  RH  100%=      5-min Rain = 0
KWOS 161041Z 01008KT 09/09 A2988 RMK A01 T00910090  RH  100%=      5-min Rain = 0
KWOS 161042Z 01007KT 09/09 A2988 RMK A01 T00900090  RH  100%=      5-min Rain = 0
KWOS 161043Z 01007KT 09/09 A2988 RMK A01 T00910090  RH  100%=      5-min Rain = 0
KWOS 161044Z 01007KT 09/09 A2988 RMK A01 T00910090  RH  100%=      5-min Rain = 0
KWOS 161045Z 01006KT 09/09 A2988 RMK A01 T00910091  RH  100%=      5-min Rain = 0
KWOS 161046Z 01007KT 09/09 A2988 RMK A01 T00910091  RH  100%=      5-min Rain = 0
KWOS 161047Z 01007KT 09/09 A2988 RMK A01 T00910091  RH  100%=      5-min Rain = 0
KWOS 161048Z 01007KT 09/09 A2988 RMK A01 T00910091  RH  100%=      5-min Rain = 0
KWOS 161049Z 01007KT 09/09 A2988 RMK A01 T00910091  RH  100%=      5-min Rain = 0
KWOS 161050Z 01008KT 09/09 A2988 RMK A01 T00910091  RH  100%=      5-min Rain = 0
KWOS 161051Z 01007KT 09/09 A2988 RMK A01 T00910091  RH  100%=      5-min Rain = 0
KWOS 161052Z 01006KT 09/09 A2988 RMK A01 T00910091  RH  100%=      5-min Rain = 0
KWOS 161053Z 01008KT 09/09 A2988 RMK A01 T00910091  RH  100%=      5-min Rain = 0
KWOS 161054Z 01009KT 09/09 A2988 RMK A01 T00910091  RH  100%=      5-min Rain = 0
KWOS 161055Z 01009KT 09/09 A2988 RMK A01 T00910091  RH  100%=      5-min Rain = 0
KWOS 161056Z 02010KT 09/09 A2988 RMK A01 T00910091  RH  100%=      5-min Rain = 0
KWOS 161057Z 02010KT 09/09 A2988 RMK A01 T00910091  RH  100%=      5-min Rain = 0
KWOS 161058Z 02010KT 09/09 A2988 RMK A01 T00910090  RH  100%=      5-min Rain = 0
KWOS 161059Z 02011KT 09/09 A2988 RMK A01 T00900090  RH  100%=      5-min Rain = 0
KWOS 161100Z 02011KT 09/09 A2988 RMK A01 T00900090  RH  100%=      5-min Rain = 0
KWOS 161101Z 02011KT 09/09 A2988 RMK A01 T00890089  RH  100%=      5-min Rain = 0
KWOS 161102Z 02011KT 09/09 A2988 RMK A01 T00890089  RH  100%=      5-min Rain = 0
KWOS 161103Z 02009KT 09/09 A2988 RMK A01 T00890089  RH  100%=      5-min Rain = 0
KWOS 161104Z 02010KT 09/09 A2988 RMK A01 T00890089  RH  100%=      5-min Rain = 0
KWOS 161105Z 02010KT 09/09 A2988 RMK A01 T00890089  RH  100%=      5-min Rain = 0
KWOS 161106Z 03011KT 09/09 A2988 RMK A01 T00890088  RH  100%=      5-min Rain = 0
KWOS 161107Z 03010KT 09/09 A2988 RMK A01 T00880088  RH  100%=      5-min Rain = 0
KWOS 161108Z 02009KT 09/09 A2988 RMK A01 T00880088  RH  100%=      5-min Rain = 0
KWOS 161109Z 02009KT 09/09 A2988 RMK A01 T00880088  RH  100%=      5-min Rain = 0
KWOS 161110Z 02011KT 09/09 A2988 RMK A01 T00880088  RH  100%=      5-min Rain = 0
KWOS 161111Z 02010KT 09/09 A2988 RMK A01 T00880088  RH  100%=      5-min Rain = 0
KWOS 161112Z 02010KT 09/09 A2988 RMK A01 T00880088  RH  100%=      5-min Rain = 0
KWOS 161113Z 03009KT 09/09 A2987 RMK A01 T00880088  RH  100%=      5-min Rain = 0
KWOS 161114Z 03008KT 09/09 A2987 RMK A01 T00880088  RH  100%=      5-min Rain = 0
KWOS 161115Z 03008KT 09/09 A2987 RMK A01 T00880088  RH  100%=      5-min Rain = 0
KWOS 161116Z 03008KT 09/09 A2987 RMK A01 T00880088  RH  100%=      5-min Rain = 0
KWOS 161117Z 03008KT 09/09 A2987 RMK A01 T00880088  RH  100%=      5-min Rain = 0
KWOS 161118Z 03008KT 09/09 A2987 RMK A01 T00880088  RH  100%=      5-min Rain = 0
KWOS 161119Z 03009KT 09/09 A2987 RMK A01 T00880088  RH  100%=      5-min Rain = 0
KWOS 161120Z 03011KT 09/09 A2988 RMK A01 T00880087  RH  100%=      5-min Rain = 0
KWOS 161121Z 03010KT 09/09 A2988 RMK A01 T00870087  RH  100%=      5-min Rain = 0
KWOS 161122Z 03011KT 09/09 A2988 RMK A01 T00860086  RH  100%=      5-min Rain = 0
KWOS 161123Z 03009KT 09/09 A2988 RMK A01 T00860086  RH  100%=      5-min Rain = 0
KWOS 161124Z 03009KT 09/09 A2988 RMK A01 T00860086  RH  100%=      5-min Rain = 0
KWOS 161125Z 03009KT 09/09 A2988 RMK A01 T00860086  RH  100%=      5-min Rain = 0
KWOS 161126Z 03009KT 09/09 A2988 RMK A01 T00860086  RH  100%=      5-min Rain = 0
KWOS 161127Z 03008KT 09/09 A2988 RMK A01 T00850085  RH  100%=      5-min Rain = 0
KWOS 161128Z 03008KT 09/09 A2988 RMK A01 T00850085  RH  100%=      5-min Rain = 0
KWOS 161129Z 04008KT 09/09 A2988 RMK A01 T00850085  RH  100%=      5-min Rain = 0
KWOS 161130Z 04007KT 09/09 A2988 RMK A01 T00850085  RH  100%=      5-min Rain = 0
KWOS 161131Z 04007KT 09/09 A2988 RMK A01 T00850085  RH  100%=      5-min Rain = 0
KWOS 161132Z 03008KT 09/08 A2988 RMK A01 T00850084  RH  100%=      5-min Rain = 0
KWOS 161133Z 04008KT 08/08 A2988 RMK A01 T00840084  RH  100%=      5-min Rain = 0
KWOS 161134Z 03008KT 08/08 A2988 RMK A01 T00840084  RH  100%=      5-min Rain = 0
KWOS 161135Z 03008KT 08/08 A2988 RMK A01 T00840084  RH  100%=      5-min Rain = 0
KWOS 161136Z 03008KT 08/08 A2988 RMK A01 T00840084  RH  100%=      5-min Rain = 0
KWOS 161137Z 04008KT 08/08 A2988 RMK A01 T00840084  RH  100%=      5-min Rain = 0
KWOS 161138Z 04009KT 08/08 A2987 RMK A01 T00840083  RH  100%=      5-min Rain = 0
KWOS 161139Z 04009KT 08/08 A2987 RMK A01 T00830083  RH  100%=      5-min Rain = 0
KWOS 161140Z 04008KT 08/08 A2987 RMK A01 T00830083  RH  100%=      5-min Rain = 0
KWOS 161141Z 03008KT 08/08 A2987 RMK A01 T00830083  RH  100%=      5-min Rain = 0
KWOS 161142Z 03008KT 08/08 A2987 RMK A01 T00830083  RH  100%=      5-min Rain = 0
KWOS 161143Z 03008KT 08/08 A2987 RMK A01 T00830083  RH  100%=      5-min Rain = 0
KWOS 161144Z 03008KT 08/08 A2987 RMK A01 T00830083  RH  100%=      5-min Rain = 0
KWOS 161145Z 03007KT 08/08 A2988 RMK A01 T00830083  RH  100%=      5-min Rain = 0
KWOS 161146Z 02007KT 08/08 A2988 RMK A01 T00820082  RH  100%=      5-min Rain = 0
KWOS 161147Z 02008KT 08/08 A2988 RMK A01 T00820082  RH  100%=      5-min Rain = 0
KWOS 161148Z 02008KT 08/08 A2988 RMK A01 T00820082  RH  100%=      5-min Rain = 0
KWOS 161149Z 02007KT 08/08 A2987 RMK A01 T00820082  RH  100%=      5-min Rain = 0
KWOS 161150Z 02006KT 08/08 A2987 RMK A01 T00820082  RH  100%=      5-min Rain = 0
KWOS 161151Z 02007KT 08/08 A2987 RMK A01 T00820082  RH  100%=      5-min Rain = 0
KWOS 161152Z 02008KT 08/08 A2987 RMK A01 T00820082  RH  100%=      5-min Rain = 0
KWOS 161153Z 02008KT 08/08 A2987 RMK A01 T00820082  RH  100%=      5-min Rain = 0
KWOS 161154Z 03006KT 08/08 A2987 RMK A01 T00820082  RH  100%=      5-min Rain = 0
KWOS 161155Z 03008KT 08/08 A2988 RMK A01 T00820082  RH  100%=      5-min Rain = 0
KWOS 161156Z 03008KT 08/08 A2988 RMK A01 T00820082  RH  100%=      5-min Rain = 0
KWOS 161157Z 03008KT 08/08 A2988 RMK A01 T00820082  RH  100%=      5-min Rain = 0
KWOS 161158Z 03007KT 08/08 A2987 RMK A01 T00820082  RH  100%=      5-min Rain = 0
KWOS 161159Z 02007KT 08/08 A2988 RMK A01 T00820082  RH  100%=      5-min Rain = 0
KWOS 161200Z 02008KT 08/08 A2988 RMK A01 T00820082  RH  100%=      5-min Rain = 0
KWOS 161201Z 02009KT 08/08 A2988 RMK A01 T00820082  RH  100%=      5-min Rain = 0
KWOS 161202Z 03009KT 08/08 A2988 RMK A01 T00820081  RH  100%=      5-min Rain = 0
KWOS 161203Z 02007KT 08/08 A2988 RMK A01 T00810081  RH  100%=      5-min Rain = 0
KWOS 161204Z 02007KT 08/08 A2988 RMK A01 T00810081  RH  100%=      5-min Rain = 0
KWOS 161205Z 03006KT 08/08 A2988 RMK A01 T00810081  RH  100%=      5-min Rain = 0
KWOS 161206Z 02008KT 08/08 A2988 RMK A01 T00810081  RH  100%=      5-min Rain = 0
KWOS 161207Z 02007KT 08/08 A2988 RMK A01 T00810081  RH  100%=      5-min Rain = 0
KWOS 161208Z 02006KT 08/08 A2988 RMK A01 T00810081  RH  100%=      5-min Rain = 0
KWOS 161209Z 02007KT 08/08 A2988 RMK A01 T00810081  RH  100%=      5-min Rain = 0
KWOS 161210Z 02005KT 08/08 A2988 RMK A01 T00810081  RH  100%=      5-min Rain = 0
KWOS 161211Z 01006KT 08/08 A2988 RMK A01 T00810081  RH  100%=      5-min Rain = 0
KWOS 161212Z 01008KT 08/08 A2988 RMK A01 T00810081  RH  100%=      5-min Rain = 0
KWOS 161213Z 02008KT 08/08 A2988 RMK A01 T00810081  RH  100%=      5-min Rain = 0
KWOS 161214Z 02007KT 08/08 A2988 RMK A01 T00810081  RH  100%=      5-min Rain = 0
KWOS 161215Z 03007KT 08/08 A2988 RMK A01 T00810081  RH  100%=      5-min Rain = 0
KWOS 161216Z 03005KT 08/08 A2988 RMK A01 T00820081  RH  100%=      5-min Rain = 0
KWOS 161217Z 03006KT 08/08 A2988 RMK A01 T00820082  RH  100%=      5-min Rain = 0
KWOS 161218Z 03007KT 08/08 A2988 RMK A01 T00820082  RH  100%=      5-min Rain = 0
KWOS 161219Z 04006KT 08/08 A2988 RMK A01 T00820082  RH  100%=      5-min Rain = 0
KWOS 161220Z 05007KT 08/08 A2988 RMK A01 T00820082  RH  100%=      5-min Rain = 0
KWOS 161221Z 05008KT 08/08 A2988 RMK A01 T00820082  RH  100%=      5-min Rain = 0
KWOS 161222Z 06008KT 08/08 A2988 RMK A01 T00820082  RH  100%=      5-min Rain = 0
KWOS 161223Z 05008KT 08/08 A2988 RMK A01 T00810081  RH  100%=      5-min Rain = 0
KWOS 161224Z 06007KT 08/08 A2988 RMK A01 T00810081  RH  100%=      5-min Rain = 0
KWOS 161225Z 05007KT 08/08 A2988 RMK A01 T00810081  RH  100%=      5-min Rain = 0
KWOS 161226Z 04007KT 08/08 A2989 RMK A01 T00810081  RH  100%=      5-min Rain = 0
KWOS 161227Z 04006KT 08/08 A2989 RMK A01 T00810081  RH  100%=      5-min Rain = 0
KWOS 161228Z 05007KT 08/08 A2988 RMK A01 T00810081  RH  100%=      5-min Rain = 0
KWOS 161229Z 02006KT 08/08 A2989 RMK A01 T00810081  RH  100%=      5-min Rain = 0
KWOS 161230Z 02008KT 08/08 A2989 RMK A01 T00810081  RH  100%=      5-min Rain = 0
KWOS 161231Z 02007KT 08/08 A2989 RMK A01 T00810081  RH  100%=      5-min Rain = 0
KWOS 161232Z 02007KT 08/08 A2989 RMK A01 T00810081  RH  100%=      5-min Rain = 0
KWOS 161233Z 02006KT 08/08 A2989 RMK A01 T00810081  RH  100%=      5-min Rain = 0
KWOS 161234Z 02006KT 08/08 A2989 RMK A01 T00810081  RH  100%=      5-min Rain = 0
KWOS 161235Z 02006KT 08/08 A2989 RMK A01 T00810081  RH  100%=      5-min Rain = 0
KWOS 161236Z 02006KT 08/08 A2989 RMK A01 T00810081  RH  100%=      5-min Rain = 0
KWOS 161237Z 02006KT 08/08 A2989 RMK A01 T00810081  RH  100%=      5-min Rain = 0
KWOS 161238Z 02007KT 08/08 A2989 RMK A01 T00820082  RH  100%=      5-min Rain = 0
KWOS 161239Z 02007KT 08/08 A2989 RMK A01 T00820082  RH  100%=      5-min Rain = 0
KWOS 161240Z 02007KT 08/08 A2989 RMK A01 T00820082  RH  100%=      5-min Rain = 0
KWOS 161241Z 01008KT 08/08 A299 RMK A01 T00820082  RH  100%=      5-min Rain = 0
KWOS 161242Z 03007KT 08/08 A299 RMK A01 T00820082  RH  100%=      5-min Rain = 0
KWOS 161243Z 03007KT 08/08 A299 RMK A01 T00820082  RH  100%=      5-min Rain = 0
KWOS 161244Z 04006KT 08/08 A299 RMK A01 T00820082  RH  100%=      5-min Rain = 0
KWOS 161245Z 04007KT 08/08 A299 RMK A01 T00820082  RH  100%=      5-min Rain = 0
KWOS 161246Z 04008KT 08/08 A299 RMK A01 T00820082  RH  100%=      5-min Rain = 0
KWOS 161247Z 04006KT 08/08 A299 RMK A01 T00810081  RH  100%=      5-min Rain = 0
KWOS 161248Z 04006KT 08/08 A299 RMK A01 T00810081  RH  100%=      5-min Rain = 0
KWOS 161249Z 03005KT 08/08 A299 RMK A01 T00810081  RH  100%=      5-min Rain = 0
KWOS 161250Z 04006KT 08/08 A299 RMK A01 T00820082  RH  100%=      5-min Rain = 0
KWOS 161251Z 03006KT 08/08 A299 RMK A01 T00810081  RH  100%=      5-min Rain = 0
KWOS 161252Z 03007KT 08/08 A299 RMK A01 T00810081  RH  100%=      5-min Rain = 0
KWOS 161253Z 03006KT 08/08 A299 RMK A01 T00810081  RH  100%=      5-min Rain = 0
KWOS 161254Z 04006KT 08/08 A2989 RMK A01 T00810081  RH  100%=      5-min Rain = 0
KWOS 161255Z 04007KT 08/08 A2989 RMK A01 T00810081  RH  100%=      5-min Rain = 0
KWOS 161256Z 04007KT 08/08 A2989 RMK A01 T00810081  RH  100%=      5-min Rain = 0
KWOS 161257Z 03006KT 08/08 A2989 RMK A01 T00810081  RH  100%=      5-min Rain = 0
KWOS 161258Z 04005KT 08/08 A2989 RMK A01 T00810081  RH  100%=      5-min Rain = 0
KWOS 161259Z 05005KT 08/08 A2989 RMK A01 T00810081  RH  100%=      5-min Rain = 0
KWOS 161300Z 05006KT 08/08 A2989 RMK A01 T00810081  RH  100%=      5-min Rain = 0
KWOS 161301Z 04007KT 08/08 A299 RMK A01 T00810081  RH  100%=      5-min Rain = 0
KWOS 161302Z 03007KT 08/08 A299 RMK A01 T00810080  RH  100%=      5-min Rain = 0
KWOS 161303Z 03007KT 08/08 A299 RMK A01 T00800080  RH  100%=      5-min Rain = 0
KWOS 161304Z 03007KT 08/08 A299 RMK A01 T00800080  RH  100%=      5-min Rain = 0
KWOS 161305Z 03007KT 08/08 A299 RMK A01 T00800080  RH  100%=      5-min Rain = 0
KWOS 161306Z 02007KT 08/08 A299 RMK A01 T00800079  RH  100%=      5-min Rain = 0
KWOS 161307Z 03005KT 08/08 A299 RMK A01 T00800079  RH  100%=      5-min Rain = 0
KWOS 161308Z 03005KT 08/08 A299 RMK A01 T00790079  RH  100%=      5-min Rain = 0
KWOS 161309Z 04005KT 08/08 A299 RMK A01 T00800079  RH  100%=      5-min Rain = 0
KWOS 161310Z 04005KT 08/08 A299 RMK A01 T00790079  RH  100%=      5-min Rain = 0
KWOS 161311Z 03004KT 08/08 A299 RMK A01 T00790079  RH  100%=      5-min Rain = 0
KWOS 161312Z 04005KT 08/08 A299 RMK A01 T00790079  RH  100%=      5-min Rain = 0
KWOS 161313Z 04006KT 08/08 A299 RMK A01 T00800079  RH  100%=      5-min Rain = 0
KWOS 161314Z 02006KT 08/08 A299 RMK A01 T00790079  RH  100%=      5-min Rain = 0
KWOS 161315Z 02007KT 08/08 A299 RMK A01 T00790079  RH  100%=      5-min Rain = 0
KWOS 161316Z 03006KT 08/08 A299 RMK A01 T00790078  RH  100%=      5-min Rain = 0
KWOS 161317Z 03005KT 08/08 A299 RMK A01 T00790078  RH  100%=      5-min Rain = 0
KWOS 161318Z 04004KT 08/08 A299 RMK A01 T00790078  RH  100%=      5-min Rain = 0
KWOS 161319Z 03005KT 08/08 A299 RMK A01 T00780078  RH  100%=      5-min Rain = 0
KWOS 161320Z 02006KT 08/08 A299 RMK A01 T00780078  RH  100%=      5-min Rain = 0
KWOS 161321Z 02006KT 08/08 A299 RMK A01 T00780078  RH  100%=      5-min Rain = 0
KWOS 161322Z 01004KT 08/08 A299 RMK A01 T00780078  RH  100%=      5-min Rain = 0
KWOS 161323Z 01005KT 08/08 A299 RMK A01 T00780077  RH  100%=      5-min Rain = 0
KWOS 161324Z 00004KT 08/08 A299 RMK A01 T00780078  RH  100%=      5-min Rain = 0
KWOS 161325Z 36004KT 08/08 A299 RMK A01 T00770077  RH  100%=      5-min Rain = 0
KWOS 161326Z 00004KT 08/08 A299 RMK A01 T00770077  RH  100%=      5-min Rain = 0
KWOS 161327Z 01005KT 08/08 A299 RMK A01 T00770077  RH  100%=      5-min Rain = 0
KWOS 161328Z 02004KT 08/08 A2991 RMK A01 T00770077  RH  100%=      5-min Rain = 0
KWOS 161329Z 00004KT 08/08 A2991 RMK A01 T00770077  RH  100%=      5-min Rain = 0
KWOS 161330Z 01004KT 08/08 A2991 RMK A01 T00770077  RH  100%=      5-min Rain = 0
KWOS 161331Z 36004KT 08/08 A2991 RMK A01 T00770077  RH  100%=      5-min Rain = 0
KWOS 161332Z 00006KT 08/08 A2991 RMK A01 T00770077  RH  100%=      5-min Rain = 0
KWOS 161333Z 01006KT 08/08 A2991 RMK A01 T00780078  RH  100%=      5-min Rain = 0
KWOS 161334Z 01005KT 08/08 A2991 RMK A01 T00780078  RH  100%=      5-min Rain = 0
KWOS 161335Z 01005KT 08/08 A2991 RMK A01 T00780077  RH  100%=      5-min Rain = 0
KWOS 161336Z 02005KT 08/08 A2991 RMK A01 T00780078  RH  100%=      5-min Rain = 0
KWOS 161337Z 03004KT 08/08 A2991 RMK A01 T00770077  RH  100%=      5-min Rain = 0
KWOS 161338Z 02004KT 08/08 A2991 RMK A01 T00770077  RH  100%=      5-min Rain = 0
KWOS 161339Z 36005KT 08/08 A2991 RMK A01 T00770077  RH  100%=      5-min Rain = 0
KWOS 161340Z 01006KT 08/08 A2991 RMK A01 T00780078  RH  100%=      5-min Rain = 0
KWOS 161341Z 04005KT 08/08 A2991 RMK A01 T00790079  RH  100%=      5-min Rain = 0
KWOS 161342Z 04007KT 08/08 A2991 RMK A01 T00800079  RH  100%=      5-min Rain = 0
KWOS 161343Z 03007KT 08/08 A2991 RMK A01 T00790079  RH  100%=      5-min Rain = 0
KWOS 161344Z 03006KT 08/08 A2991 RMK A01 T00790078  RH  100%=      5-min Rain = 0
KWOS 161345Z 03006KT 08/08 A2991 RMK A01 T00790078  RH  100%=      5-min Rain = 0
KWOS 161346Z 02007KT 08/08 A2991 RMK A01 T00790078  RH  100%=      5-min Rain = 0
KWOS 161347Z 03006KT 08/08 A2991 RMK A01 T00780078  RH  100%=      5-min Rain = 0
KWOS 161348Z 02006KT 08/08 A2991 RMK A01 T00770077  RH  100%=      5-min Rain = 0
KWOS 161349Z 03006KT 08/08 A2991 RMK A01 T00770077  RH  100%=      5-min Rain = 0
KWOS 161350Z 02008KT 08/08 A2991 RMK A01 T00780078  RH  100%=      5-min Rain = 0
KWOS 161351Z 02006KT 08/08 A2991 RMK A01 T00780078  RH  100%=      5-min Rain = 0
KWOS 161352Z 02006KT 08/08 A2991 RMK A01 T00780078  RH  100%=      5-min Rain = 0
KWOS 161353Z 02006KT 08/08 A2992 RMK A01 T00780078  RH  100%=      5-min Rain = 0
KWOS 161354Z 03005KT 08/08 A2991 RMK A01 T00780078  RH  100%=      5-min Rain = 0
KWOS 161355Z 03006KT 08/08 A2991 RMK A01 T00780078  RH  100%=      5-min Rain = 0
KWOS 161356Z 01007KT 08/08 A2991 RMK A01 T00780078  RH  100%=      5-min Rain = 0
KWOS 161357Z 01006KT 08/08 A2992 RMK A01 T00780078  RH  100%=      5-min Rain = 0
KWOS 161358Z 01007KT 08/08 A2992 RMK A01 T00780078  RH  100%=      5-min Rain = 0
KWOS 161359Z 01007KT 08/08 A2992 RMK A01 T00780078  RH  100%=      5-min Rain = 0
KWOS 161400Z 01006KT 08/08 A2992 RMK A01 T00780078  RH  100%=      5-min Rain = 0
KWOS 161401Z 35007KT 08/08 A2992 RMK A01 T00780077  RH  100%=      5-min Rain = 0
KWOS 161402Z 36006KT 08/08 A2992 RMK A01 T00770077  RH  100%=      5-min Rain = 0
KWOS 161403Z 35008KT 08/08 A2992 RMK A01 T00770077  RH  100%=      5-min Rain = 0
KWOS 161404Z 35007KT 08/08 A2992 RMK A01 T00770077  RH  100%=      5-min Rain = 0
KWOS 161405Z 36005KT 08/08 A2992 RMK A01 T00760076  RH  100%=      5-min Rain = 0
KWOS 161406Z 00005KT 08/08 A2992 RMK A01 T00760076  RH  100%=      5-min Rain = 0
KWOS 161407Z 00006KT 08/08 A2992 RMK A01 T00780078  RH  100%=      5-min Rain = 0
KWOS 161408Z 35007KT 08/08 A2992 RMK A01 T00780078  RH  100%=      5-min Rain = 0
KWOS 161409Z 35007KT 08/08 A2992 RMK A01 T00780078  RH  100%=      5-min Rain = 0
KWOS 161410Z 35007KT 08/08 A2992 RMK A01 T00780078  RH  100%=      5-min Rain = 0
KWOS 161411Z 35007KT 08/08 A2992 RMK A01 T00780077  RH  100%=      5-min Rain = 0
KWOS 161412Z 36006KT 08/08 A2992 RMK A01 T00780077  RH  100%=      5-min Rain = 0
KWOS 161413Z 35005KT 08/08 A2992 RMK A01 T00770077  RH  100%=      5-min Rain = 0
KWOS 161414Z 35006KT 08/08 A2992 RMK A01 T00770077  RH  100%=      5-min Rain = 0
KWOS 161415Z 35006KT 08/08 A2992 RMK A01 T00770077  RH  100%=      5-min Rain = 0
KWOS 161416Z 36005KT 08/08 A2992 RMK A01 T00770076  RH  100%=      5-min Rain = 0
KWOS 161417Z 35004KT 08/08 A2992 RMK A01 T00760076  RH  100%=      5-min Rain = 0
KWOS 161418Z 36005KT 08/08 A2992 RMK A01 T00770077  RH  100%=      5-min Rain = 0
KWOS 161419Z 00004KT 08/08 A2992 RMK A01 T00770077  RH  100%=      5-min Rain = 0
KWOS 161420Z 02005KT 08/08 A2992 RMK A01 T00780078  RH  100%=      5-min Rain = 0
KWOS 161421Z 02005KT 08/08 A2992 RMK A01 T00780078  RH  100%=      5-min Rain = 0
KWOS 161422Z 02004KT 08/08 A2992 RMK A01 T00780078  RH  100%=      5-min Rain = 0
KWOS 161423Z 02005KT 08/08 A2992 RMK A01 T00780078  RH  100%=      5-min Rain = 0
KWOS 161424Z 00006KT 08/08 A2992 RMK A01 T00790079  RH  100%=      5-min Rain = 0
KWOS 161425Z 00005KT 08/08 A2992 RMK A01 T00790078  RH  100%=      5-min Rain = 0
KWOS 161426Z 36005KT 08/08 A2992 RMK A01 T00780078  RH  100%=      5-min Rain = 0
KWOS 161427Z 36005KT 08/08 A2992 RMK A01 T00790078  RH  100%=      5-min Rain = 0
KWOS 161428Z 00005KT 08/08 A2992 RMK A01 T00790078  RH  100%=      5-min Rain = 0
KWOS 161429Z 00005KT 08/08 A2992 RMK A01 T00780078  RH  100%=      5-min Rain = 0
KWOS 161430Z 35006KT 08/08 A2992 RMK A01 T00780078  RH  100%=      5-min Rain = 0
KWOS 161431Z 35005KT 08/08 A2992 RMK A01 T00780078  RH  100%=      5-min Rain = 0
KWOS 161432Z 35005KT 08/08 A2992 RMK A01 T00780078  RH  100%=      5-min Rain = 0
KWOS 161433Z 34004KT 08/08 A2993 RMK A01 T00790078  RH  100%=      5-min Rain = 0
KWOS 161434Z 34003KT 08/08 A2993 RMK A01 T00790078  RH  100%=      5-min Rain = 0
KWOS 161435Z 35004KT 08/08 A2993 RMK A01 T00790078  RH  100%=      5-min Rain = 0
KWOS 161436Z 33006KT 08/08 A2993 RMK A01 T00790079  RH  100%=      5-min Rain = 0
KWOS 161437Z 33006KT 08/08 A2993 RMK A01 T00800080  RH  100%=      5-min Rain = 0
KWOS 161438Z 34007KT 08/08 A2993 RMK A01 T00800080  RH  100%=      5-min Rain = 0
KWOS 161439Z 34007KT 08/08 A2993 RMK A01 T00790079  RH  100%=      5-min Rain = 0
KWOS 161440Z 35007KT 08/08 A2993 RMK A01 T00790079  RH  100%=      5-min Rain = 0
KWOS 161441Z 34006KT 08/08 A2993 RMK A01 T00790079  RH  100%=      5-min Rain = 0
KWOS 161442Z 35006KT 08/08 A2993 RMK A01 T00780078  RH  100%=      5-min Rain = 0
KWOS 161443Z 35005KT 08/08 A2993 RMK A01 T00780078  RH  100%=      5-min Rain = 0
KWOS 161444Z 00005KT 08/08 A2993 RMK A01 T00790079  RH  100%=      5-min Rain = 0
KWOS 161445Z 00006KT 08/08 A2993 RMK A01 T00800079  RH  100%=      5-min Rain = 0
KWOS 161446Z 00007KT 08/08 A2993 RMK A01 T00790079  RH  100%=      5-min Rain = 0
KWOS 161447Z 36006KT 08/08 A2993 RMK A01 T00790079  RH  100%=      5-min Rain = 0
KWOS 161448Z 34007KT 08/08 A2993 RMK A01 T00790079  RH  100%=      5-min Rain = 0
KWOS 161449Z 35007KT 08/08 A2993 RMK A01 T00790078  RH  100%=      5-min Rain = 0
KWOS 161450Z 35006KT 08/08 A2993 RMK A01 T00780078  RH  100%=      5-min Rain = 0
KWOS 161451Z 33007KT 08/08 A2993 RMK A01 T00780078  RH  100%=      5-min Rain = 0
KWOS 161452Z 34006KT 08/08 A2993 RMK A01 T00780078  RH  100%=      5-min Rain = 0
KWOS 161453Z 34006KT 08/08 A2993 RMK A01 T00780078  RH  100%=      5-min Rain = 0
KWOS 161454Z 34007KT 08/08 A2993 RMK A01 T00780078  RH  100%=      5-min Rain = 0
KWOS 161455Z 34007KT 08/08 A2993 RMK A01 T00780078  RH  100%=      5-min Rain = 0
KWOS 161456Z 35007KT 08/08 A2993 RMK A01 T00780078  RH  100%=      5-min Rain = 0
KWOS 161457Z 34008KT 08/08 A2993 RMK A01 T00780077  RH  100%=      5-min Rain = 0
KWOS 161458Z 35007KT 08/08 A2993 RMK A01 T00780078  RH  100%=      5-min Rain = 0
KWOS 161459Z 36006KT 08/08 A2993 RMK A01 T00770077  RH  100%=      5-min Rain = 0
KWOS 161500Z 00006KT 08/08 A2993 RMK A01 T00780078  RH  100%=      5-min Rain = 0
KWOS 161501Z 00006KT 08/08 A2993 RMK A01 T00810081  RH  100%=      5-min Rain = 0
KWOS 161502Z 01008KT 08/08 A2993 RMK A01 T00820081  RH  100%=      5-min Rain = 0
KWOS 161503Z 36006KT 08/08 A2993 RMK A01 T00800080  RH  100%=      5-min Rain = 0
KWOS 161504Z 34006KT 08/08 A2993 RMK A01 T00800079  RH  100%=      5-min Rain = 0
KWOS 161505Z 34009KT 08/08 A2993 RMK A01 T00800079  RH  100%=      5-min Rain = 0
KWOS 161506Z 35010KT 08/08 A2994 RMK A01 T00800080  RH  100%=      5-min Rain = 0
KWOS 161507Z 35009KT 08/08 A2994 RMK A01 T00810081  RH  100%=      5-min Rain = 0
KWOS 161508Z 36010KT 08/08 A2994 RMK A01 T00820082  RH  100%=      5-min Rain = 0
KWOS 161509Z 36009KT 08/08 A2994 RMK A01 T00810081  RH  100%=      5-min Rain = 0
KWOS 161510Z 36010KT 08/08 A2994 RMK A01 T00810081  RH  100%=      5-min Rain = 0
KWOS 161511Z 36010KT 08/08 A2994 RMK A01 T00820082  RH  100%=      5-min Rain = 0
KWOS 161512Z 01010KT 08/08 A2994 RMK A01 T00810081  RH  100%=      5-min Rain = 0
KWOS 161513Z 36011KT 08/08 A2994 RMK A01 T00810081  RH  100%=      5-min Rain = 0
KWOS 161514Z 36011KT 08/08 A2994 RMK A01 T00820081  RH  100%=      5-min Rain = 0
KWOS 161515Z 36012KT 08/08 A2994 RMK A01 T00830082  RH  100%=      5-min Rain = 0
KWOS 161516Z 00012KT 08/08 A2994 RMK A01 T00810081  RH  100%=      5-min Rain = 0
KWOS 161517Z 01010KT 08/08 A2994 RMK A01 T00800080  RH  100%=      5-min Rain = 0
KWOS 161518Z 01010KT 08/08 A2994 RMK A01 T00800080  RH  100%=      5-min Rain = 0
KWOS 161519Z 01012KT 08/08 A2994 RMK A01 T00810081  RH  100%=      5-min Rain = 0
KWOS 161520Z 00014KT 08/08 A2994 RMK A01 T00800080  RH  100%=      5-min Rain = 0
KWOS 161521Z 00014KT 08/08 A2994 RMK A01 T00810081  RH  100%=      5-min Rain = 0
KWOS 161522Z 36014KT 08/08 A2994 RMK A01 T00800080  RH  100%=      5-min Rain = 0
KWOS 161523Z 00012KT 08/08 A2994 RMK A01 T00800079  RH  100%=      5-min Rain = 0
KWOS 161524Z 01011KT 08/08 A2994 RMK A01 T00800080  RH  100%=      5-min Rain = 0
KWOS 161525Z 01012KT 08/08 A2994 RMK A01 T00800080  RH  100%=      5-min Rain = 0
KWOS 161526Z 01011KT 08/08 A2994 RMK A01 T00800080  RH  100%=      5-min Rain = 0
KWOS 161527Z 00011KT 08/08 A2994 RMK A01 T00800080  RH  100%=      5-min Rain = 0
KWOS 161528Z 01012KT 08/08 A2994 RMK A01 T00800080  RH  100%=      5-min Rain = 0
KWOS 161529Z 00013KT 08/08 A2994 RMK A01 T00790079  RH  100%=      5-min Rain = 0
KWOS 161530Z 00013G18KT 08/08 A2994 RMK A01 T00800080  RH  100%=      5-min Rain = 0
KWOS 161531Z 36014KT 08/08 A2994 RMK A01 T00810081  RH  100%=      5-min Rain = 0
KWOS 161532Z 36015KT 08/08 A2994 RMK A01 T00810081  RH  100%=      5-min Rain = 0
KWOS 161533Z 36014KT 08/08 A2994 RMK A01 T00800080  RH  100%=      5-min Rain = 0
KWOS 161534Z 35014KT 08/08 A2994 RMK A01 T00810080  RH  100%=      5-min Rain = 0
KWOS 161535Z 35014KT 08/08 A2994 RMK A01 T00810081  RH  100%=      5-min Rain = 0
KWOS 161536Z 35015KT 08/08 A2994 RMK A01 T00800080  RH  100%=      5-min Rain = 0
KWOS 161537Z 36014KT 08/08 A2994 RMK A01 T00800080  RH  100%=      5-min Rain = 0
KWOS 161538Z 00016KT 08/08 A2994 RMK A01 T00800080  RH  100%=      5-min Rain = 0
KWOS 161539Z 00014KT 08/08 A2994 RMK A01 T00800080  RH  100%=      5-min Rain = 0
KWOS 161540Z 00016KT 08/08 A2994 RMK A01 T00800080  RH  100%=      5-min Rain = 0
KWOS 161541Z 00013KT 08/08 A2994 RMK A01 T00800080  RH  100%=      5-min Rain = 0
KWOS 161542Z 36013KT 08/08 A2994 RMK A01 T00800080  RH  100%=      5-min Rain = 0
KWOS 161543Z 36013KT 08/08 A2995 RMK A01 T00810081  RH  100%=      5-min Rain = 0
KWOS 161544Z 00012KT 08/08 A2995 RMK A01 T00810081  RH  100%=      5-min Rain = 0
KWOS 161545Z 35014KT 08/08 A2995 RMK A01 T00820082  RH  100%=      5-min Rain = 0
KWOS 161546Z 36013KT 08/08 A2995 RMK A01 T00820082  RH  100%=      5-min Rain = 0
KWOS 161547Z 36012KT 08/08 A2995 RMK A01 T00820082  RH  100%=      5-min Rain = 0
KWOS 161548Z 00013KT 08/08 A2995 RMK A01 T00820082  RH  100%=      5-min Rain = 0
KWOS 161549Z 36013KT 08/08 A2995 RMK A01 T00820082  RH  100%=      5-min Rain = 0
KWOS 161550Z 36013KT 08/08 A2995 RMK A01 T00820082  RH  100%=      5-min Rain = 0
KWOS 161551Z 01014KT 08/08 A2995 RMK A01 T00820082  RH  100%=      5-min Rain = 0
KWOS 161552Z 01014KT 08/08 A2995 RMK A01 T00820082  RH  100%=      5-min Rain = 0
KWOS 161553Z 01014KT 08/08 A2995 RMK A01 T00820082  RH  100%=      5-min Rain = 0
KWOS 161554Z 01014KT 08/08 A2995 RMK A01 T00820082  RH  100%=      5-min Rain = 0
KWOS 161555Z 01013KT 08/08 A2995 RMK A01 T00810081  RH  100%=      5-min Rain = 0
KWOS 161556Z 36013KT 08/08 A2995 RMK A01 T00820082  RH  100%=      5-min Rain = 0
KWOS 161557Z 35014KT 08/08 A2995 RMK A01 T00820082  RH  100%=      5-min Rain = 0
KWOS 161558Z 35015KT 08/08 A2995 RMK A01 T00830083  RH  100%=      5-min Rain = 0
KWOS 161559Z 35014KT 08/08 A2995 RMK A01 T00830083  RH  100%=      5-min Rain = 0
KWOS 161600Z 36012KT 08/08 A2995 RMK A01 T00830083  RH  100%=      5-min Rain = 0.01
KWOS 161601Z 00010KT 08/08 A2995 RMK A01 T00840084  RH  100%=      5-min Rain = 0
KWOS 161602Z 01012KT 09/09 A2995 RMK A01 T00850085  RH  100%=      5-min Rain = 0
KWOS 161603Z 01010KT 09/09 A2995 RMK A01 T00850085  RH  100%=      5-min Rain = 0
KWOS 161604Z 02013KT 09/09 A2995 RMK A01 T00860086  RH  100%=      5-min Rain = 0
KWOS 161605Z 01013KT 09/09 A2995 RMK A01 T00860085  RH  100%=      5-min Rain = 0
KWOS 161606Z 01013KT 09/09 A2995 RMK A01 T00850085  RH  100%=      5-min Rain = 0
KWOS 161607Z 00011KT 09/09 A2995 RMK A01 T00850085  RH  100%=      5-min Rain = 0
KWOS 161608Z 01011KT 09/09 A2995 RMK A01 T00850085  RH  100%=      5-min Rain = 0
KWOS 161609Z 01015KT 09/09 A2995 RMK A01 T00860086  RH  100%=      5-min Rain = 0
KWOS 161610Z 01014KT 09/09 A2995 RMK A01 T00860086  RH  100%=      5-min Rain = 0
KWOS 161611Z 01013KT 09/09 A2995 RMK A01 T00860086  RH  100%=      5-min Rain = 0
KWOS 161612Z 01013KT 09/09 A2996 RMK A01 T00870086  RH  100%=      5-min Rain = 0
KWOS 161613Z 01014KT 09/09 A2995 RMK A01 T00870086  RH  099%=      5-min Rain = 0
KWOS 161614Z 01014KT 09/09 A2995 RMK A01 T00870085  RH  099%=      5-min Rain = 0
KWOS 161615Z 00015KT 09/09 A2996 RMK A01 T00870086  RH  099%=      5-min Rain = 0
KWOS 161616Z 01015KT 09/09 A2996 RMK A01 T00870085  RH  098%=      5-min Rain = 0
KWOS 161617Z 00013KT 09/08 A2996 RMK A01 T00870084  RH  098%=      5-min Rain = 0
KWOS 161618Z 01011KT 09/09 A2996 RMK A01 T00870085  RH  098%=      5-min Rain = 0
KWOS 161619Z 01016KT 09/09 A2996 RMK A01 T00890086  RH  098%=      5-min Rain = 0
KWOS 161620Z 01015KT 09/09 A2996 RMK A01 T00880085  RH  098%=      5-min Rain = 0
KWOS 161621Z 01013KT 09/09 A2996 RMK A01 T00880085  RH  098%=      5-min Rain = 0
KWOS 161622Z 01013KT 09/09 A2996 RMK A01 T00880085  RH  098%=      5-min Rain = 0
KWOS 161623Z 02014KT 09/08 A2996 RMK A01 T00870084  RH  098%=      5-min Rain = 0
KWOS 161624Z 02016KT 09/08 A2996 RMK A01 T00860082  RH  097%=      5-min Rain = 0
KWOS 161625Z 02014KT 09/08 A2996 RMK A01 T00850081  RH  098%=      5-min Rain = 0
KWOS 161626Z 03015KT 08/08 A2996 RMK A01 T00840081  RH  098%=      5-min Rain = 0
KWOS 161627Z 02013KT 08/08 A2996 RMK A01 T00830080  RH  098%=      5-min Rain = 0
KWOS 161628Z 02012KT 08/08 A2996 RMK A01 T00830080  RH  098%=      5-min Rain = 0
KWOS 161629Z 03013KT 08/08 A2996 RMK A01 T00820080  RH  099%=      5-min Rain = 0
KWOS 161630Z 02013KT 08/08 A2996 RMK A01 T00820081  RH  099%=      5-min Rain = 0
KWOS 161631Z 01012KT 08/08 A2996 RMK A01 T00820081  RH  099%=      5-min Rain = 0
KWOS 161632Z 02011KT 08/08 A2996 RMK A01 T00820081  RH  099%=      5-min Rain = 0
KWOS 161633Z 01010KT 08/08 A2996 RMK A01 T00830081  RH  099%=      5-min Rain = 0
KWOS 161634Z 01011KT 09/08 A2996 RMK A01 T00850084  RH  100%=      5-min Rain = 0
KWOS 161635Z 01011KT 09/08 A2996 RMK A01 T00850084  RH  099%=      5-min Rain = 0
KWOS 161636Z 00009KT 09/08 A2996 RMK A01 T00850084  RH  099%=      5-min Rain = 0
KWOS 161637Z 01008KT 09/08 A2996 RMK A01 T00860084  RH  099%=      5-min Rain = 0
KWOS 161638Z 00008KT 09/09 A2996 RMK A01 T00890086  RH  099%=      5-min Rain = 0
KWOS 161639Z 35007KT 09/09 A2996 RMK A01 T00910090  RH  099%=      5-min Rain = 0
KWOS 161640Z 35008KT 09/09 A2996 RMK A01 T00930091  RH  099%=      5-min Rain = 0
KWOS 161641Z 34008KT 09/09 A2995 RMK A01 T00940091  RH  098%=      5-min Rain = 0
KWOS 161642Z 35007KT 10/09 A2995 RMK A01 T00950091  RH  097%=      5-min Rain = 0
KWOS 161643Z 35009KT 10/09 A2995 RMK A01 T00970092  RH  097%=      5-min Rain = 0
KWOS 161644Z 35009KT 10/09 A2995 RMK A01 T00990093  RH  096%=      5-min Rain = 0
KWOS 161645Z 35009KT 10/09 A2995 RMK A01 T00980091  RH  095%=      5-min Rain = 0
KWOS 161646Z 35009KT 10/09 A2995 RMK A01 T00990091  RH  095%=      5-min Rain = 0
KWOS 161647Z 34010KT 10/09 A2995 RMK A01 T00990091  RH  094%=      5-min Rain = 0
KWOS 161648Z 34010KT 10/09 A2995 RMK A01 T01000089  RH  093%=      5-min Rain = 0
KWOS 161649Z 35010KT 10/09 A2995 RMK A01 T01000088  RH  092%=      5-min Rain = 0
KWOS 161650Z 35012KT 10/09 A2995 RMK A01 T01020090  RH  092%=      5-min Rain = 0
KWOS 161651Z 35013KT 10/09 A2995 RMK A01 T01030089  RH  091%=      5-min Rain = 0
KWOS 161652Z 34012KT 10/09 A2995 RMK A01 T01030089  RH  091%=      5-min Rain = 0
KWOS 161653Z 34012KT 10/09 A2995 RMK A01 T01030087  RH  090%=      5-min Rain = 0
KWOS 161654Z 35014KT 10/09 A2995 RMK A01 T01030087  RH  090%=      5-min Rain = 0
KWOS 161655Z 35013KT 10/09 A2995 RMK A01 T01030085  RH  088%=      5-min Rain = 0
KWOS 161656Z 00011KT 10/09 A2995 RMK A01 T01030085  RH  089%=      5-min Rain = 0
KWOS 161657Z 36012KT 11/09 A2995 RMK A01 T01050089  RH  090%=      5-min Rain = 0
KWOS 161658Z 35010KT 11/09 A2995 RMK A01 T01080093  RH  091%=      5-min Rain = 0
KWOS 161659Z 35011KT 11/10 A2995 RMK A01 T01110097  RH  091%=      5-min Rain = 0
KWOS 161700Z 36012KT 11/10 A2995 RMK A01 T01130098  RH  091%=      5-min Rain = 0
KWOS 161701Z 00011KT 11/10 A2995 RMK A01 T01140097  RH  090%=      5-min Rain = 0
KWOS 161702Z 00011KT 11/10 A2995 RMK A01 T01140095  RH  088%=      5-min Rain = 0
KWOS 161703Z 35013KT 11/10 A2995 RMK A01 T01140095  RH  088%=      5-min Rain = 0
KWOS 161704Z 35011KT 11/09 A2995 RMK A01 T01140093  RH  087%=      5-min Rain = 0
KWOS 161705Z 35011KT 11/09 A2995 RMK A01 T01140093  RH  086%=      5-min Rain = 0
KWOS 161706Z 34013KT 12/09 A2995 RMK A01 T01150094  RH  087%=      5-min Rain = 0
KWOS 161707Z 34012KT 12/10 A2995 RMK A01 T01160095  RH  086%=      5-min Rain = 0
KWOS 161708Z 35013KT 12/09 A2995 RMK A01 T01170092  RH  085%=      5-min Rain = 0
KWOS 161709Z 35013KT 12/10 A2995 RMK A01 T01180095  RH  086%=      5-min Rain = 0
KWOS 161710Z 35015KT 12/09 A2995 RMK A01 T01190094  RH  085%=      5-min Rain = 0
KWOS 161711Z 35015KT 12/09 A2995 RMK A01 T01190092  RH  083%=      5-min Rain = 0
KWOS 161712Z 35015KT 12/09 A2995 RMK A01 T01190092  RH  083%=      5-min Rain = 0
KWOS 161713Z 36013KT 12/09 A2995 RMK A01 T01180093  RH  084%=      5-min Rain = 0
KWOS 161714Z 00012KT 12/09 A2995 RMK A01 T01190094  RH  084%=      5-min Rain = 0
KWOS 161715Z 36012G17KT 12/10 A2995 RMK A01 T01210097  RH  085%=      5-min Rain = 0
KWOS 161716Z 35014KT 12/09 A2995 RMK A01 T01220094  RH  083%=      5-min Rain = 0
KWOS 161717Z 35014KT 12/10 A2995 RMK A01 T01230095  RH  083%=      5-min Rain = 0
KWOS 161718Z 36012KT 12/09 A2995 RMK A01 T01230093  RH  082%=      5-min Rain = 0
KWOS 161719Z 35011KT 12/10 A2995 RMK A01 T01230095  RH  083%=      5-min Rain = 0
KWOS 161720Z 35014KT 12/10 A2995 RMK A01 T01240098  RH  084%=      5-min Rain = 0
KWOS 161721Z 35012KT 13/10 A2995 RMK A01 T01250097  RH  083%=      5-min Rain = 0
KWOS 161722Z 34012KT 13/10 A2995 RMK A01 T01260099  RH  083%=      5-min Rain = 0
KWOS 161723Z 35013KT 13/10 A2995 RMK A01 T01260095  RH  082%=      5-min Rain = 0
KWOS 161724Z 00012KT 13/09 A2995 RMK A01 T01250093  RH  081%=      5-min Rain = 0
KWOS 161725Z 35011KT 12/10 A2995 RMK A01 T01240099  RH  084%=      5-min Rain = 0
KWOS 161726Z 35013KT 13/10 A2995 RMK A01 T01250095  RH  082%=      5-min Rain = 0
KWOS 161727Z 35012KT 12/10 A2995 RMK A01 T01240095  RH  082%=      5-min Rain = 0
KWOS 161728Z 36013KT 13/10 A2995 RMK A01 T01250097  RH  083%=      5-min Rain = 0
KWOS 161729Z 36013KT 13/10 A2995 RMK A01 T01270097  RH  082%=      5-min Rain = 0
KWOS 161730Z 35015G21KT 13/10 A2995 RMK A01 T01280097  RH  081%=      5-min Rain = 0
KWOS 161731Z 36017KT 13/10 A2995 RMK A01 T01280095  RH  080%=      5-min Rain = 0
KWOS 161732Z 35018G23KT 13/09 A2995 RMK A01 T01280094  RH  080%=      5-min Rain = 0
KWOS 161733Z 35017KT 13/09 A2995 RMK A01 T01270092  RH  079%=      5-min Rain = 0
KWOS 161734Z 35016G21KT 13/09 A2995 RMK A01 T01270093  RH  080%=      5-min Rain = 0
KWOS 161735Z 01016G21KT 13/09 A2995 RMK A01 T01270092  RH  079%=      5-min Rain = 0
KWOS 161736Z 36014KT 13/10 A2995 RMK A01 T01270095  RH  081%=      5-min Rain = 0
KWOS 161737Z 36013KT 13/10 A2995 RMK A01 T01280097  RH  082%=      5-min Rain = 0
KWOS 161738Z 35017KT 13/10 A2995 RMK A01 T01280096  RH  080%=      5-min Rain = 0
KWOS 161739Z 35019KT 13/09 A2995 RMK A01 T01280093  RH  079%=      5-min Rain = 0
KWOS 161740Z 00017KT 13/09 A2995 RMK A01 T01280091  RH  078%=      5-min Rain = 0
KWOS 161741Z 36014KT 13/09 A2995 RMK A01 T01280092  RH  078%=      5-min Rain = 0
KWOS 161742Z 36016KT 13/09 A2995 RMK A01 T01280090  RH  078%=      5-min Rain = 0
KWOS 161743Z 01016KT 13/10 A2995 RMK A01 T01280095  RH  080%=      5-min Rain = 0
KWOS 161744Z 00017KT 13/09 A2995 RMK A01 T01290093  RH  079%=      5-min Rain = 0
KWOS 161745Z 36017KT 13/09 A2995 RMK A01 T01290091  RH  078%=      5-min Rain = 0
KWOS 161746Z 00018KT 13/09 A2995 RMK A01 T01280092  RH  078%=      5-min Rain = 0
KWOS 161747Z 00017G22KT 13/09 A2995 RMK A01 T01290089  RH  076%=      5-min Rain = 0
KWOS 161748Z 00017KT 13/09 A2995 RMK A01 T01290090  RH  077%=      5-min Rain = 0
KWOS 161749Z 00017KT 13/09 A2995 RMK A01 T01290088  RH  076%=      5-min Rain = 0
KWOS 161750Z 36019KT 13/09 A2996 RMK A01 T01290088  RH  076%=      5-min Rain = 0
KWOS 161751Z 36018KT 13/09 A2996 RMK A01 T01290086  RH  075%=      5-min Rain = 0
KWOS 161752Z 36017KT 13/09 A2996 RMK A01 T01290085  RH  074%=      5-min Rain = 0
KWOS 161753Z 00018KT 13/09 A2996 RMK A01 T01290085  RH  075%=      5-min Rain = 0
KWOS 161754Z 00017KT 13/09 A2996 RMK A01 T01300087  RH  075%=      5-min Rain = 0
KWOS 161755Z 01016KT 13/09 A2996 RMK A01 T01310089  RH  075%=      5-min Rain = 0
KWOS 161756Z 00016KT 13/09 A2996 RMK A01 T01320091  RH  076%=      5-min Rain = 0
KWOS 161757Z 36017KT 13/09 A2996 RMK A01 T01330090  RH  075%=      5-min Rain = 0
KWOS 161758Z 00018KT 13/09 A2996 RMK A01 T01320091  RH  076%=      5-min Rain = 0
KWOS 161759Z 01018KT 13/09 A2996 RMK A01 T01320086  RH  074%=      5-min Rain = 0
KWOS 161800Z 01017KT 13/09 A2996 RMK A01 T01310087  RH  075%=      5-min Rain = 0
KWOS 161801Z 01018KT 13/09 A2996 RMK A01 T01320086  RH  074%=      5-min Rain = 0
KWOS 161802Z 00017KT 13/09 A2996 RMK A01 T01320085  RH  073%=      5-min Rain = 0
KWOS 161803Z 00017G22KT 13/09 A2996 RMK A01 T01320090  RH  076%=      5-min Rain = 0
KWOS 161804Z 01018G23KT 13/09 A2996 RMK A01 T01330092  RH  076%=      5-min Rain = 0
KWOS 161805Z 01019G24KT 13/09 A2996 RMK A01 T01330091  RH  075%=      5-min Rain = 0
KWOS 161806Z 00017G22KT 13/09 A2996 RMK A01 T01330089  RH  075%=      5-min Rain = 0
KWOS 161807Z 01016G24KT 13/10 A2996 RMK A01 T01340096  RH  077%=      5-min Rain = 0
KWOS 161808Z 01018KT 14/09 A2996 RMK A01 T01360092  RH  075%=      5-min Rain = 0
KWOS 161809Z 02016G21KT 14/09 A2996 RMK A01 T01350090  RH  074%=      5-min Rain = 0
KWOS 161810Z 01018KT 13/09 A2996 RMK A01 T01340090  RH  075%=      5-min Rain = 0
KWOS 161811Z 36019KT 13/09 A2996 RMK A01 T01330087  RH  074%=      5-min Rain = 0
KWOS 161812Z 01017KT 13/09 A2996 RMK A01 T01320088  RH  075%=      5-min Rain = 0
KWOS 161813Z 00017KT 13/09 A2996 RMK A01 T01330088  RH  074%=      5-min Rain = 0
KWOS 161814Z 00019KT 13/09 A2996 RMK A01 T01340089  RH  074%=      5-min Rain = 0
KWOS 161815Z 36016KT 13/09 A2996 RMK A01 T01340087  RH  073%=      5-min Rain = 0
KWOS 161816Z 00016KT 13/09 A2996 RMK A01 T01340089  RH  074%=      5-min Rain = 0
KWOS 161817Z 00017KT 13/09 A2996 RMK A01 T01340086  RH  073%=      5-min Rain = 0
KWOS 161818Z 01017KT 14/09 A2996 RMK A01 T01350089  RH  074%=      5-min Rain = 0
KWOS 161819Z 01016KT 13/08 A2996 RMK A01 T01340083  RH  071%=      5-min Rain = 0
KWOS 161820Z 01018KT 13/09 A2996 RMK A01 T01330086  RH  073%=      5-min Rain = 0
KWOS 161821Z 01019G24KT 13/09 A2996 RMK A01 T01320087  RH  074%=      5-min Rain = 0
KWOS 161822Z 00021G26KT 13/09 A2996 RMK A01 T01320089  RH  075%=      5-min Rain = 0
KWOS 161823Z 01021KT 13/09 A2996 RMK A01 T01310088  RH  075%=      5-min Rain = 0
KWOS 161824Z 01021KT 13/09 A2996 RMK A01 T01310087  RH  075%=      5-min Rain = 0
KWOS 161825Z 01020KT 13/09 A2996 RMK A01 T01300086  RH  075%=      5-min Rain = 0
KWOS 161826Z 00019G24KT 13/09 A2996 RMK A01 T01290086  RH  075%=      5-min Rain = 0
KWOS 161827Z 01019KT 13/09 A2996 RMK A01 T01290087  RH  076%=      5-min Rain = 0
KWOS 161828Z 01018G24KT 13/09 A2996 RMK A01 T01290086  RH  075%=      5-min Rain = 0
KWOS 161829Z 02020KT 13/09 A2996 RMK A01 T01280085  RH  075%=      5-min Rain = 0
KWOS 161830Z 00020G25KT 13/09 A2997 RMK A01 T01260086  RH  076%=      5-min Rain = 0
KWOS 161831Z 00019G24KT 12/08 A2997 RMK A01 T01230084  RH  077%=      5-min Rain = 0
KWOS 161832Z 01021G26KT 12/09 A2997 RMK A01 T01220087  RH  079%=      5-min Rain = 0
KWOS 161833Z 01017G23KT 12/09 A2997 RMK A01 T01220088  RH  080%=      5-min Rain = 0
KWOS 161834Z 00020KT 13/09 A2997 RMK A01 T01250091  RH  080%=      5-min Rain = 0
KWOS 161835Z 00019KT 13/09 A2997 RMK A01 T01250085  RH  077%=      5-min Rain = 0
KWOS 161836Z 00018G24KT 12/09 A2997 RMK A01 T01230085  RH  077%=      5-min Rain = 0
KWOS 161837Z 01019G24KT 12/08 A2997 RMK A01 T01230083  RH  077%=      5-min Rain = 0
KWOS 161838Z 01019KT 12/08 A2997 RMK A01 T01220083  RH  077%=      5-min Rain = 0
KWOS 161839Z 01018KT 12/08 A2997 RMK A01 T01220082  RH  077%=      5-min Rain = 0
KWOS 161840Z 01017KT 12/08 A2997 RMK A01 T01210081  RH  076%=      5-min Rain = 0
KWOS 161841Z 02018KT 12/08 A2997 RMK A01 T01210081  RH  076%=      5-min Rain = 0
KWOS 161842Z 02018G24KT 12/08 A2997 RMK A01 T01220080  RH  075%=      5-min Rain = 0
KWOS 161843Z 01018KT 12/08 A2997 RMK A01 T01210078  RH  075%=      5-min Rain = 0
KWOS 161844Z 01016KT 12/08 A2997 RMK A01 T01210078  RH  075%=      5-min Rain = 0
KWOS 161845Z 01018KT 12/08 A2997 RMK A01 T01220080  RH  075%=      5-min Rain = 0
KWOS 161846Z 02016G21KT 12/08 A2997 RMK A01 T01220077  RH  074%=      5-min Rain = 0
KWOS 161847Z 02017KT 12/08 A2997 RMK A01 T01220077  RH  074%=      5-min Rain = 0
KWOS 161848Z 36018KT 12/08 A2997 RMK A01 T01220079  RH  075%=      5-min Rain = 0
KWOS 161849Z 35017G22KT 12/08 A2997 RMK A01 T01230076  RH  073%=      5-min Rain = 0
KWOS 161850Z 01015G20KT 12/07 A2997 RMK A01 T01230074  RH  072%=      5-min Rain = 0
KWOS 161851Z 01017KT 12/07 A2997 RMK A01 T01240074  RH  072%=      5-min Rain = 0
KWOS 161852Z 00015KT 13/07 A2997 RMK A01 T01250073  RH  070%=      5-min Rain = 0
KWOS 161853Z 36014KT 13/08 A2997 RMK A01 T01270075  RH  071%=      5-min Rain = 0
KWOS 161854Z 36015KT 13/08 A2997 RMK A01 T01280076  RH  071%=      5-min Rain = 0
KWOS 161855Z 01016KT 13/08 A2997 RMK A01 T01290077  RH  071%=      5-min Rain = 0
KWOS 161856Z 02015KT 13/08 A2997 RMK A01 T01280075  RH  070%=      5-min Rain = 0
KWOS 161857Z 02013KT 13/08 A2997 RMK A01 T01270075  RH  071%=      5-min Rain = 0
KWOS 161858Z 02014KT 13/08 A2997 RMK A01 T01260075  RH  071%=      5-min Rain = 0
KWOS 161859Z 01014KT 13/08 A2997 RMK A01 T01250076  RH  072%=      5-min Rain = 0
KWOS 161900Z 01015KT 12/07 A2997 RMK A01 T01240073  RH  071%=      5-min Rain = 0
KWOS 161901Z 02017KT 12/07 A2997 RMK A01 T01230074  RH  072%=      5-min Rain = 0
KWOS 161902Z 02016KT 12/07 A2997 RMK A01 T01220073  RH  072%=      5-min Rain = 0
KWOS 161903Z 01014KT 12/08 A2997 RMK A01 T01220076  RH  074%=      5-min Rain = 0
KWOS 161904Z 02016G22KT 12/08 A2997 RMK A01 T01210075  RH  073%=      5-min Rain = 0
KWOS 161905Z 03018KT 12/08 A2997 RMK A01 T01210076  RH  074%=      5-min Rain = 0
KWOS 161906Z 03017KT 12/08 A2997 RMK A01 T01210077  RH  074%=      5-min Rain = 0
KWOS 161907Z 02015G20KT 12/07 A2997 RMK A01 T01200074  RH  073%=      5-min Rain = 0
KWOS 161908Z 03016KT 12/08 A2997 RMK A01 T01200075  RH  074%=      5-min Rain = 0
KWOS 161909Z 03016KT 12/07 A2997 RMK A01 T01200073  RH  073%=      5-min Rain = 0
KWOS 161910Z 02016KT 12/07 A2997 RMK A01 T01200072  RH  072%=      5-min Rain = 0
KWOS 161911Z 01016KT 12/07 A2997 RMK A01 T01210072  RH  072%=      5-min Rain = 0
KWOS 161912Z 01016KT 12/07 A2997 RMK A01 T01220071  RH  071%=      5-min Rain = 0
KWOS 161913Z 02016KT 12/07 A2997 RMK A01 T01220071  RH  071%=      5-min Rain = 0
KWOS 161914Z 02013KT 12/07 A2997 RMK A01 T01220072  RH  071%=      5-min Rain = 0
KWOS 161915Z 02012KT 12/07 A2997 RMK A01 T01230073  RH  072%=      5-min Rain = 0
KWOS 161916Z 03014KT 12/07 A2997 RMK A01 T01240074  RH  071%=      5-min Rain = 0
KWOS 161917Z 03014G20KT 13/08 A2997 RMK A01 T01260075  RH  071%=      5-min Rain = 0
KWOS 161918Z 02014KT 13/07 A2997 RMK A01 T01270074  RH  070%=      5-min Rain = 0
KWOS 161919Z 02014KT 13/08 A2997 RMK A01 T01280075  RH  070%=      5-min Rain = 0
KWOS 161920Z 03013KT 13/07 A2996 RMK A01 T01280072  RH  069%=      5-min Rain = 0
KWOS 161921Z 02014KT 13/08 A2996 RMK A01 T01300076  RH  069%=      5-min Rain = 0
KWOS 161922Z 03013G18KT 13/08 A2996 RMK A01 T01320076  RH  069%=      5-min Rain = 0
KWOS 161923Z 02014KT 14/08 A2996 RMK A01 T01360079  RH  069%=      5-min Rain = 0
KWOS 161924Z 03016KT 14/07 A2996 RMK A01 T01360074  RH  066%=      5-min Rain = 0
KWOS 161925Z 02014KT 14/07 A2996 RMK A01 T01350073  RH  066%=      5-min Rain = 0
KWOS 161926Z 02015KT 13/07 A2996 RMK A01 T01340074  RH  067%=      5-min Rain = 0
KWOS 161927Z 02016G22KT 14/08 A2997 RMK A01 T01350078  RH  068%=      5-min Rain = 0
KWOS 161928Z 03013KT 14/07 A2997 RMK A01 T01350073  RH  066%=      5-min Rain = 0
KWOS 161929Z 03015KT 13/07 A2997 RMK A01 T01320071  RH  066%=      5-min Rain = 0
KWOS 161930Z 02012KT 13/07 A2997 RMK A01 T01300071  RH  067%=      5-min Rain = 0
KWOS 161931Z 02015KT 13/07 A2996 RMK A01 T01330074  RH  068%=      5-min Rain = 0
KWOS 161932Z 02014KT 13/07 A2996 RMK A01 T01330069  RH  065%=      5-min Rain = 0
KWOS 161933Z 02013KT 13/07 A2996 RMK A01 T01320070  RH  066%=      5-min Rain = 0
KWOS 161934Z 02013G20KT 13/08 A2996 RMK A01 T01340075  RH  067%=      5-min Rain = 0
KWOS 161935Z 02017KT 14/07 A2996 RMK A01 T01360070  RH  064%=      5-min Rain = 0
KWOS 161936Z 03017G24KT 13/07 A2996 RMK A01 T01340069  RH  065%=      5-min Rain = 0
KWOS 161937Z 00018KT 13/07 A2996 RMK A01 T01330071  RH  066%=      5-min Rain = 0
KWOS 161938Z 00019KT 13/07 A2996 RMK A01 T01320072  RH  067%=      5-min Rain = 0
KWOS 161939Z 01021KT 13/07 A2996 RMK A01 T01320074  RH  068%=      5-min Rain = 0
KWOS 161940Z 01022KT 13/07 A2997 RMK A01 T01320070  RH  066%=      5-min Rain = 0
KWOS 161941Z 02019KT 13/07 A2996 RMK A01 T01290070  RH  067%=      5-min Rain = 0
KWOS 161942Z 01019KT 13/07 A2997 RMK A01 T01280068  RH  067%=      5-min Rain = 0
KWOS 161943Z 02017G22KT 13/07 A2997 RMK A01 T01270069  RH  068%=      5-min Rain = 0
KWOS 161944Z 01018KT 13/07 A2997 RMK A01 T01300071  RH  067%=      5-min Rain = 0
KWOS 161945Z 02014KT 13/07 A2996 RMK A01 T01340074  RH  067%=      5-min Rain = 0
KWOS 161946Z 01019KT 14/08 A2996 RMK A01 T01390077  RH  066%=      5-min Rain = 0
KWOS 161947Z 02016G21KT 14/08 A2996 RMK A01 T01400075  RH  065%=      5-min Rain = 0
KWOS 161948Z 02019G24KT 14/08 A2996 RMK A01 T01430076  RH  064%=      5-min Rain = 0
KWOS 161949Z 02017KT 14/07 A2996 RMK A01 T01400068  RH  062%=      5-min Rain = 0
KWOS 161950Z 02020KT 14/07 A2996 RMK A01 T01380067  RH  062%=      5-min Rain = 0
KWOS 161951Z 02017KT 14/06 A2996 RMK A01 T01350063  RH  061%=      5-min Rain = 0
KWOS 161952Z 02015KT 13/06 A2996 RMK A01 T01340064  RH  062%=      5-min Rain = 0
KWOS 161953Z 02014KT 14/07 A2996 RMK A01 T01370066  RH  062%=      5-min Rain = 0
KWOS 161954Z 03014KT 14/07 A2996 RMK A01 T01380065  RH  061%=      5-min Rain = 0
KWOS 161955Z 02014G19KT 14/06 A2996 RMK A01 T01370063  RH  061%=      5-min Rain = 0
KWOS 161956Z 02016KT 14/07 A2996 RMK A01 T01360065  RH  062%=      5-min Rain = 0
KWOS 161957Z 01016KT 14/06 A2996 RMK A01 T01360061  RH  061%=      5-min Rain = 0
KWOS 161958Z 01015KT 14/06 A2996 RMK A01 T01360059  RH  060%=      5-min Rain = 0
KWOS 161959Z 01015G21KT 14/06 A2996 RMK A01 T01360062  RH  061%=      5-min Rain = 0
KWOS 162000Z 02015KT 14/06 A2996 RMK A01 T01390062  RH  060%=      5-min Rain = 0
KWOS 162001Z 02015KT 14/06 A2996 RMK A01 T01390064  RH  060%=      5-min Rain = 0
KWOS 162002Z 01017KT 14/06 A2996 RMK A01 T01400064  RH  060%=      5-min Rain = 0
KWOS 162003Z 02016KT 14/06 A2996 RMK A01 T01380057  RH  058%=      5-min Rain = 0
KWOS 162004Z 01014KT 14/06 A2996 RMK A01 T01380057  RH  058%=      5-min Rain = 0
KWOS 162005Z 01012KT 14/06 A2996 RMK A01 T01390062  RH  060%=      5-min Rain = 0
KWOS 162006Z 02015KT 14/06 A2996 RMK A01 T01420064  RH  059%=      5-min Rain = 0
KWOS 162007Z 01017G22KT 14/06 A2996 RMK A01 T01440062  RH  058%=      5-min Rain = 0
KWOS 162008Z 01015KT 14/06 A2996 RMK A01 T01440059  RH  056%=      5-min Rain = 0
KWOS 162009Z 03016KT 14/06 A2996 RMK A01 T01420059  RH  057%=      5-min Rain = 0
KWOS 162010Z 03017G22KT 14/06 A2996 RMK A01 T01440062  RH  058%=      5-min Rain = 0
KWOS 162011Z 03017G23KT 15/06 A2996 RMK A01 T01460059  RH  056%=      5-min Rain = 0
KWOS 162012Z 03013KT 14/06 A2996 RMK A01 T01440057  RH  056%=      5-min Rain = 0
KWOS 162013Z 03013KT 14/06 A2996 RMK A01 T01430060  RH  058%=      5-min Rain = 0
KWOS 162014Z 02016KT 15/06 A2996 RMK A01 T01460063  RH  057%=      5-min Rain = 0
KWOS 162015Z 02016KT 15/06 A2996 RMK A01 T01490063  RH  056%=      5-min Rain = 0
KWOS 162016Z 02018KT 15/06 A2996 RMK A01 T01500063  RH  056%=      5-min Rain = 0
KWOS 162017Z 03015G20KT 15/06 A2996 RMK A01 T01500063  RH  056%=      5-min Rain = 0
KWOS 162018Z 02015KT 15/06 A2996 RMK A01 T01510060  RH  054%=      5-min Rain = 0
KWOS 162019Z 02017G24KT 15/06 A2996 RMK A01 T01500061  RH  055%=      5-min Rain = 0
KWOS 162020Z 01017KT 15/06 A2996 RMK A01 T01520058  RH  054%=      5-min Rain = 0
KWOS 162021Z 01015KT 15/06 A2996 RMK A01 T01510058  RH  054%=      5-min Rain = 0
KWOS 162022Z 36012KT 15/06 A2996 RMK A01 T01520060  RH  054%=      5-min Rain = 0
KWOS 162023Z 02014G21KT 15/06 A2996 RMK A01 T01520057  RH  053%=      5-min Rain = 0
KWOS 162024Z 03016G23KT 15/06 A2996 RMK A01 T01520061  RH  055%=      5-min Rain = 0
KWOS 162025Z 02019G24KT 15/06 A2996 RMK A01 T01530062  RH  054%=      5-min Rain = 0
KWOS 162026Z 02015KT 15/06 A2996 RMK A01 T01510058  RH  054%=      5-min Rain = 0
KWOS 162027Z 01014KT 15/06 A2996 RMK A01 T01500059  RH  055%=      5-min Rain = 0
KWOS 162028Z 01014G20KT 15/06 A2996 RMK A01 T01500062  RH  055%=      5-min Rain = 0
KWOS 162029Z 35019KT 15/06 A2996 RMK A01 T01510057  RH  053%=      5-min Rain = 0
KWOS 162030Z 01017KT 15/05 A2996 RMK A01 T01500054  RH  053%=      5-min Rain = 0
KWOS 162031Z 01015KT 15/06 A2996 RMK A01 T01490055  RH  053%=      5-min Rain = 0
KWOS 162032Z 01015KT 15/06 A2996 RMK A01 T01500055  RH  053%=      5-min Rain = 0
KWOS 162033Z 02014KT 15/06 A2996 RMK A01 T01500058  RH  054%=      5-min Rain = 0
KWOS 162034Z 02014KT 15/06 A2996 RMK A01 T01530061  RH  054%=      5-min Rain = 0
KWOS 162035Z 01013KT 15/05 A2996 RMK A01 T01510053  RH  052%=      5-min Rain = 0
KWOS 162036Z 03014G20KT 15/06 A2996 RMK A01 T01470055  RH  054%=      5-min Rain = 0
KWOS 162037Z 01014G20KT 15/06 A2996 RMK A01 T01480056  RH  054%=      5-min Rain = 0
KWOS 162038Z 00012KT 15/06 A2997 RMK A01 T01500059  RH  054%=      5-min Rain = 0
KWOS 162039Z 01012KT 15/06 A2996 RMK A01 T01530058  RH  053%=      5-min Rain = 0
KWOS 162040Z 02011KT 15/05 A2996 RMK A01 T01530054  RH  052%=      5-min Rain = 0
KWOS 162041Z 02010G16KT 15/06 A2996 RMK A01 T01510056  RH  053%=      5-min Rain = 0
KWOS 162042Z 03017G22KT 16/06 A2996 RMK A01 T01550063  RH  054%=      5-min Rain = 0
KWOS 162043Z 02013G21KT 16/06 A2997 RMK A01 T01570058  RH  052%=      5-min Rain = 0
KWOS 162044Z 02015KT 16/06 A2996 RMK A01 T01570058  RH  052%=      5-min Rain = 0
KWOS 162045Z 02014KT 16/05 A2996 RMK A01 T01550052  RH  050%=      5-min Rain = 0
KWOS 162046Z 02013G18KT 15/05 A2996 RMK A01 T01520052  RH  051%=      5-min Rain = 0
KWOS 162047Z 01016KT 15/05 A2996 RMK A01 T01510053  RH  052%=      5-min Rain = 0
KWOS 162048Z 01014KT 15/05 A2996 RMK A01 T01510054  RH  052%=      5-min Rain = 0
KWOS 162049Z 01016KT 15/05 A2996 RMK A01 T01510054  RH  052%=      5-min Rain = 0
KWOS 162050Z 01015G20KT 15/05 A2996 RMK A01 T01530054  RH  052%=      5-min Rain = 0
KWOS 162051Z 01019KT 15/05 A2996 RMK A01 T01540053  RH  051%=      5-min Rain = 0
KWOS 162052Z 01015KT 15/05 A2996 RMK A01 T01540051  RH  050%=      5-min Rain = 0
KWOS 162053Z 36013KT 15/05 A2996 RMK A01 T01530051  RH  050%=      5-min Rain = 0
KWOS 162054Z 00014KT 15/05 A2996 RMK A01 T01530052  RH  051%=      5-min Rain = 0
KWOS 162055Z 01014KT 15/05 A2996 RMK A01 T01540050  RH  050%=      5-min Rain = 0
KWOS 162056Z 01016KT 16/06 A2996 RMK A01 T01560056  RH  051%=      5-min Rain = 0
KWOS 162057Z 01014KT 16/05 A2996 RMK A01 T01580051  RH  049%=      5-min Rain = 0
KWOS 162058Z 02015G21KT 16/05 A2996 RMK A01 T01580054  RH  050%=      5-min Rain = 0
KWOS 162059Z 01015G22KT 16/06 A2996 RMK A01 T01610057  RH  050%=      5-min Rain = 0
KWOS 162100Z 03018KT 16/06 A2996 RMK A01 T01620057  RH  050%=      5-min Rain = 0
KWOS 162101Z 03013KT 16/05 A2996 RMK A01 T01590052  RH  049%=      5-min Rain = 0
KWOS 162102Z 01015G20KT 16/06 A2996 RMK A01 T01580056  RH  051%=      5-min Rain = 0
KWOS 162103Z 01015KT 16/05 A2996 RMK A01 T01580051  RH  049%=      5-min Rain = 0
KWOS 162104Z 01012KT 16/05 A2996 RMK A01 T01560051  RH  049%=      5-min Rain = 0
KWOS 162105Z 02015KT 16/05 A2996 RMK A01 T01560050  RH  049%=      5-min Rain = 0
KWOS 162106Z 01017KT 15/05 A2996 RMK A01 T01540048  RH  049%=      5-min Rain = 0
KWOS 162107Z 02015G21KT 15/05 A2996 RMK A01 T01530049  RH  050%=      5-min Rain = 0
KWOS 162108Z 01015G20KT 16/05 A2996 RMK A01 T01560052  RH  050%=      5-min Rain = 0
KWOS 162109Z 02016KT 16/05 A2996 RMK A01 T01590054  RH  050%=      5-min Rain = 0
KWOS 162110Z 04018KT 16/05 A2996 RMK A01 T01620052  RH  048%=      5-min Rain = 0
KWOS 162111Z 03016G21KT 16/05 A2996 RMK A01 T01620052  RH  048%=      5-min Rain = 0
KWOS 162112Z 02015G21KT 16/05 A2996 RMK A01 T01640051  RH  047%=      5-min Rain = 0
KWOS 162113Z 04017KT 16/05 A2996 RMK A01 T01610048  RH  047%=      5-min Rain = 0
KWOS 162114Z 03016G21KT 16/05 A2996 RMK A01 T01590047  RH  047%=      5-min Rain = 0
KWOS 162115Z 03016G25KT 16/05 A2996 RMK A01 T01590050  RH  048%=      5-min Rain = 0
KWOS 162116Z 01020G25KT 16/05 A2996 RMK A01 T01600046  RH  047%=      5-min Rain = 0
KWOS 162117Z 01017KT 16/04 A2996 RMK A01 T01560043  RH  047%=      5-min Rain = 0
KWOS 162118Z 02016G22KT 16/05 A2996 RMK A01 T01550045  RH  048%=      5-min Rain = 0
KWOS 162119Z 02018KT 16/04 A2996 RMK A01 T01560044  RH  047%=      5-min Rain = 0
KWOS 162120Z 01015KT 16/04 A2996 RMK A01 T01550043  RH  047%=      5-min Rain = 0
KWOS 162121Z 00016G22KT 16/04 A2996 RMK A01 T01550044  RH  048%=      5-min Rain = 0
KWOS 162122Z 02017KT 16/05 A2996 RMK A01 T01550045  RH  048%=      5-min Rain = 0
KWOS 162123Z 03019KT 16/04 A2996 RMK A01 T01560043  RH  047%=      5-min Rain = 0
KWOS 162124Z 02016KT 15/04 A2996 RMK A01 T01530040  RH  047%=      5-min Rain = 0
KWOS 162125Z 01015KT 15/04 A2996 RMK A01 T01510040  RH  047%=      5-min Rain = 0
KWOS 162126Z 01012KT 15/04 A2996 RMK A01 T01500039  RH  048%=      5-min Rain = 0
KWOS 162127Z 02013KT 15/04 A2996 RMK A01 T01490044  RH  049%=      5-min Rain = 0
KWOS 162128Z 01014G21KT 15/04 A2996 RMK A01 T01500042  RH  048%=      5-min Rain = 0
KWOS 162129Z 01019G24KT 15/04 A2996 RMK A01 T01500044  RH  049%=      5-min Rain = 0
KWOS 162130Z 00017KT 15/04 A2996 RMK A01 T01490044  RH  049%=      5-min Rain = 0
KWOS 162131Z 01015KT 15/04 A2996 RMK A01 T01480041  RH  049%=      5-min Rain = 0
KWOS 162132Z 02017KT 15/04 A2996 RMK A01 T01470043  RH  050%=      5-min Rain = 0
KWOS 162133Z 03015KT 15/04 A2996 RMK A01 T01470044  RH  050%=      5-min Rain = 0
KWOS 162134Z 02017G22KT 15/04 A2996 RMK A01 T01480043  RH  049%=      5-min Rain = 0
KWOS 162135Z 03016KT 15/05 A2996 RMK A01 T01500045  RH  049%=      5-min Rain = 0
KWOS 162136Z 03014KT 15/04 A2996 RMK A01 T01510043  RH  048%=      5-min Rain = 0
KWOS 162137Z 03014G19KT 15/05 A2996 RMK A01 T01520045  RH  049%=      5-min Rain = 0
KWOS 162138Z 01016KT 15/04 A2996 RMK A01 T01530042  RH  047%=      5-min Rain = 0
KWOS 162139Z 01014KT 15/04 A2996 RMK A01 T01530044  RH  048%=      5-min Rain = 0
KWOS 162140Z 01015G20KT 15/04 A2996 RMK A01 T01520041  RH  047%=      5-min Rain = 0
KWOS 162141Z 01017G22KT 15/04 A2996 RMK A01 T01510042  RH  048%=      5-min Rain = 0
KWOS 162142Z 01016KT 15/04 A2996 RMK A01 T01500041  RH  048%=      5-min Rain = 0
KWOS 162143Z 01014KT 15/04 A2996 RMK A01 T01500040  RH  048%=      5-min Rain = 0
KWOS 162144Z 01014KT 15/04 A2996 RMK A01 T01520041  RH  048%=      5-min Rain = 0
KWOS 162145Z 01015KT 16/04 A2996 RMK A01 T01560044  RH  047%=      5-min Rain = 0
KWOS 162146Z 03012KT 16/04 A2996 RMK A01 T01570043  RH  046%=      5-min Rain = 0
KWOS 162147Z 02015G22KT 16/05 A2996 RMK A01 T01610047  RH  047%=      5-min Rain = 0
KWOS 162148Z 02017KT 16/04 A2996 RMK A01 T01610044  RH  046%=      5-min Rain = 0
KWOS 162149Z 02017KT 16/05 A2996 RMK A01 T01610045  RH  046%=      5-min Rain = 0
KWOS 162150Z 03017KT 16/04 A2996 RMK A01 T01600042  RH  045%=      5-min Rain = 0
KWOS 162151Z 03018KT 16/04 A2996 RMK A01 T01590042  RH  046%=      5-min Rain = 0
KWOS 162152Z 03014G19KT 16/04 A2996 RMK A01 T01580041  RH  046%=      5-min Rain = 0
KWOS 162153Z 03012G17KT 16/04 A2995 RMK A01 T01580044  RH  046%=      5-min Rain = 0
KWOS 162154Z 02018G23KT 16/04 A2996 RMK A01 T01600044  RH  046%=      5-min Rain = 0
KWOS 162155Z 03013KT 16/04 A2996 RMK A01 T01580039  RH  045%=      5-min Rain = 0
KWOS 162156Z 02015KT 16/04 A2995 RMK A01 T01560040  RH  046%=      5-min Rain = 0
KWOS 162157Z 02014G19KT 16/04 A2996 RMK A01 T01570042  RH  046%=      5-min Rain = 0
KWOS 162158Z 02018G25KT 16/05 A2996 RMK A01 T01580045  RH  047%=      5-min Rain = 0
KWOS 162159Z 03019KT 16/05 A2996 RMK A01 T01570046  RH  048%=      5-min Rain = 0
KWOS 162200Z 03019KT 16/04 A2996 RMK A01 T01550044  RH  048%=      5-min Rain = 0
KWOS 162201Z 03017G23KT 16/04 A2996 RMK A01 T01550044  RH  048%=      5-min Rain = 0
KWOS 162202Z 02013G19KT 16/05 A2996 RMK A01 T01570049  RH  049%=      5-min Rain = 0
KWOS 162203Z 01014KT 16/05 A2996 RMK A01 T01610049  RH  047%=      5-min Rain = 0
KWOS 162204Z 03017KT 16/05 A2996 RMK A01 T01620046  RH  046%=      5-min Rain = 0
KWOS 162205Z 02014G20KT 16/05 A2996 RMK A01 T01600046  RH  047%=      5-min Rain = 0
KWOS 162206Z 03016G22KT 16/05 A2996 RMK A01 T01600047  RH  047%=      5-min Rain = 0
KWOS 162207Z 05015KT 16/05 A2996 RMK A01 T01610046  RH  046%=      5-min Rain = 0
KWOS 162208Z 05014KT 16/04 A2996 RMK A01 T01580042  RH  046%=      5-min Rain = 0
KWOS 162209Z 02017G25KT 16/05 A2996 RMK A01 T01590050  RH  048%=      5-min Rain = 0
KWOS 162210Z 02023KT 16/05 A2996 RMK A01 T01630045  RH  045%=      5-min Rain = 0
KWOS 162211Z 03020G25KT 16/04 A2996 RMK A01 T01590041  RH  045%=      5-min Rain = 0
KWOS 162212Z 04017G22KT 16/04 A2996 RMK A01 T01580041  RH  046%=      5-min Rain = 0
KWOS 162213Z 05020G25KT 16/04 A2996 RMK A01 T01570041  RH  046%=      5-min Rain = 0
KWOS 162214Z 04020G25KT 15/04 A2996 RMK A01 T01540035  RH  045%=      5-min Rain = 0
KWOS 162215Z 04014KT 15/04 A2996 RMK A01 T01500035  RH  046%=      5-min Rain = 0
KWOS 162216Z 02013G18KT 15/04 A2997 RMK A01 T01520042  RH  048%=      5-min Rain = 0
KWOS 162217Z 02016KT 16/04 A2997 RMK A01 T01570043  RH  047%=      5-min Rain = 0
KWOS 162218Z 01019KT 16/04 A2997 RMK A01 T01560040  RH  046%=      5-min Rain = 0
KWOS 162219Z 01018KT 15/04 A2997 RMK A01 T01540039  RH  046%=      5-min Rain = 0
KWOS 162220Z 02017KT 15/04 A2997 RMK A01 T01520040  RH  047%=      5-min Rain = 0
KWOS 162221Z 03014G20KT 15/04 A2996 RMK A01 T01510043  RH  048%=      5-min Rain = 0
KWOS 162222Z 02019G25KT 15/04 A2997 RMK A01 T01540043  RH  047%=      5-min Rain = 0
KWOS 162223Z 03016KT 15/04 A2997 RMK A01 T01520042  RH  048%=      5-min Rain = 0
KWOS 162224Z 01016KT 15/04 A2997 RMK A01 T01500039  RH  047%=      5-min Rain = 0
KWOS 162225Z 03015G20KT 15/04 A2997 RMK A01 T01470038  RH  048%=      5-min Rain = 0
KWOS 162226Z 03015G20KT 15/04 A2997 RMK A01 T01470039  RH  048%=      5-min Rain = 0
KWOS 162227Z 03016KT 15/04 A2997 RMK A01 T01460039  RH  048%=      5-min Rain = 0
KWOS 162228Z 03014KT 15/04 A2997 RMK A01 T01460038  RH  048%=      5-min Rain = 0
KWOS 162229Z 03015KT 15/04 A2997 RMK A01 T01460039  RH  049%=      5-min Rain = 0
KWOS 162230Z 04014KT 15/04 A2997 RMK A01 T01460038  RH  048%=      5-min Rain = 0
KWOS 162231Z 03017G23KT 15/04 A2997 RMK A01 T01460038  RH  048%=      5-min Rain = 0
KWOS 162232Z 03016KT 15/04 A2997 RMK A01 T01470039  RH  048%=      5-min Rain = 0
KWOS 162233Z 03017KT 15/04 A2997 RMK A01 T01480039  RH  048%=      5-min Rain = 0
KWOS 162234Z 03017G24KT 15/04 A2997 RMK A01 T01480037  RH  047%=      5-min Rain = 0
KWOS 162235Z 03015KT 15/04 A2997 RMK A01 T01470038  RH  048%=      5-min Rain = 0
KWOS 162236Z 03017KT 15/04 A2997 RMK A01 T01470036  RH  047%=      5-min Rain = 0
KWOS 162237Z 03019G24KT 15/04 A2997 RMK A01 T01480037  RH  047%=      5-min Rain = 0
KWOS 162238Z 02020G25KT 15/04 A2997 RMK A01 T01480037  RH  047%=      5-min Rain = 0
KWOS 162239Z 02020KT 15/04 A2998 RMK A01 T01480038  RH  047%=      5-min Rain = 0
KWOS 162240Z 02016G21KT 15/04 A2998 RMK A01 T01480037  RH  047%=      5-min Rain = 0
KWOS 162241Z 03017G24KT 15/04 A2997 RMK A01 T01470035  RH  047%=      5-min Rain = 0
KWOS 162242Z 02021KT 15/03 A2998 RMK A01 T01450033  RH  047%=      5-min Rain = 0
KWOS 162243Z 03018KT 14/03 A2998 RMK A01 T01430033  RH  047%=      5-min Rain = 0
KWOS 162244Z 02014G19KT 14/03 A2998 RMK A01 T01420034  RH  048%=      5-min Rain = 0
KWOS 162245Z 02015KT 14/04 A2998 RMK A01 T01420036  RH  049%=      5-min Rain = 0
KWOS 162246Z 02016G21KT 14/03 A2998 RMK A01 T01430034  RH  048%=      5-min Rain = 0
KWOS 162247Z 02017KT 14/03 A2998 RMK A01 T01430033  RH  048%=      5-min Rain = 0
KWOS 162248Z 02014KT 14/03 A2998 RMK A01 T01420034  RH  048%=      5-min Rain = 0
KWOS 162249Z 02015G20KT 14/04 A2998 RMK A01 T01430035  RH  048%=      5-min Rain = 0
KWOS 162250Z 03018KT 14/03 A2998 RMK A01 T01440034  RH  048%=      5-min Rain = 0
KWOS 162251Z 03015KT 14/03 A2998 RMK A01 T01430033  RH  047%=      5-min Rain = 0
KWOS 162252Z 02017G23KT 14/03 A2998 RMK A01 T01420034  RH  048%=      5-min Rain = 0
KWOS 162253Z 03017KT 14/04 A2998 RMK A01 T01430035  RH  048%=      5-min Rain = 0
KWOS 162254Z 02021G27KT 14/04 A2998 RMK A01 T01430035  RH  048%=      5-min Rain = 0
KWOS 162255Z 03020KT 14/03 A2998 RMK A01 T01420033  RH  048%=      5-min Rain = 0
KWOS 162256Z 03020G25KT 14/03 A2998 RMK A01 T01410033  RH  048%=      5-min Rain = 0
KWOS 162257Z 03018G24KT 14/03 A2998 RMK A01 T01410032  RH  048%=      5-min Rain = 0
KWOS 162258Z 02020KT 14/03 A2998 RMK A01 T01420032  RH  048%=      5-min Rain = 0
KWOS 162259Z 01017KT 14/03 A2998 RMK A01 T01420034  RH  048%=      5-min Rain = 0
KWOS 162300Z 02017KT 14/04 A2998 RMK A01 T01440035  RH  048%=      5-min Rain = 0
KWOS 162301Z 02015KT 14/04 A2999 RMK A01 T01440036  RH  048%=      5-min Rain = 0
KWOS 162302Z 02017KT 14/03 A2999 RMK A01 T01440034  RH  047%=      5-min Rain = 0
KWOS 162303Z 02017KT 14/03 A2999 RMK A01 T01430032  RH  047%=      5-min Rain = 0
KWOS 162304Z 02016KT 14/03 A2999 RMK A01 T01430032  RH  047%=      5-min Rain = 0
KWOS 162305Z 02020KT 14/03 A2999 RMK A01 T01430032  RH  047%=      5-min Rain = 0
KWOS 162306Z 03017KT 14/03 A2999 RMK A01 T01410031  RH  047%=      5-min Rain = 0
KWOS 162307Z 03015G20KT 14/03 A2999 RMK A01 T01400031  RH  048%=      5-min Rain = 0
KWOS 162308Z 03017G22KT 14/03 A2999 RMK A01 T01410033  RH  048%=      5-min Rain = 0
KWOS 162309Z 02021G27KT 14/03 A2999 RMK A01 T01410032  RH  048%=      5-min Rain = 0
KWOS 162310Z 02023KT 14/03 A2999 RMK A01 T01410030  RH  047%=      5-min Rain = 0
KWOS 162311Z 02019KT 14/03 A2999 RMK A01 T01400029  RH  047%=      5-min Rain = 0
KWOS 162312Z 02019G25KT 14/03 A2999 RMK A01 T01390027  RH  047%=      5-min Rain = 0
KWOS 162313Z 03019KT 14/03 A2999 RMK A01 T01380028  RH  047%=      5-min Rain = 0
KWOS 162314Z 03020KT 14/03 A2999 RMK A01 T01380029  RH  048%=      5-min Rain = 0
KWOS 162315Z 03020KT 14/03 A2999 RMK A01 T01380029  RH  048%=      5-min Rain = 0
KWOS 162316Z 03018KT 14/03 A2999 RMK A01 T01370027  RH  047%=      5-min Rain = 0
KWOS 162317Z 04018G24KT 14/03 A2998 RMK A01 T01360026  RH  047%=      5-min Rain = 0
KWOS 162318Z 03020KT 14/03 A2999 RMK A01 T01360026  RH  047%=      5-min Rain = 0
KWOS 162319Z 03017KT 14/03 A2999 RMK A01 T01360029  RH  048%=      5-min Rain = 0
KWOS 162320Z 03016KT 14/03 A2999 RMK A01 T01370028  RH  048%=      5-min Rain = 0
KWOS 162321Z 03016G25KT 14/03 A2999 RMK A01 T01380030  RH  048%=      5-min Rain = 0
KWOS 162322Z 03021KT 14/03 A2999 RMK A01 T01380029  RH  048%=      5-min Rain = 0
KWOS 162323Z 03019G24KT 14/03 A2999 RMK A01 T01370027  RH  048%=      5-min Rain = 0
KWOS 162324Z 03020KT 14/03 A2999 RMK A01 T01360026  RH  048%=      5-min Rain = 0
KWOS 162325Z 03017G22KT 13/03 A2999 RMK A01 T01340026  RH  048%=      5-min Rain = 0
KWOS 162326Z 04018G25KT 13/03 A2999 RMK A01 T01340026  RH  048%=      5-min Rain = 0
KWOS 162327Z 04018KT 13/03 A2999 RMK A01 T01340026  RH  048%=      5-min Rain = 0
KWOS 162328Z 04016G23KT 13/03 A2999 RMK A01 T01340026  RH  048%=      5-min Rain = 0
KWOS 162329Z 03015G22KT 13/03 A2999 RMK A01 T01330027  RH  049%=      5-min Rain = 0
KWOS 162330Z 04017G23KT 13/03 A2999 RMK A01 T01340027  RH  048%=      5-min Rain = 0
KWOS 162331Z 03019G24KT 13/03 A2999 RMK A01 T01340025  RH  048%=      5-min Rain = 0
KWOS 162332Z 01018G23KT 13/03 A2999 RMK A01 T01340027  RH  048%=      5-min Rain = 0
KWOS 162333Z 01020KT 13/03 A2999 RMK A01 T01340027  RH  048%=      5-min Rain = 0
KWOS 162334Z 02019G24KT 13/03 A30 RMK A01 T01340026  RH  048%=      5-min Rain = 0
KWOS 162335Z 02019G24KT 13/03 A2999 RMK A01 T01330025  RH  048%=      5-min Rain = 0
KWOS 162336Z 02022KT 13/02 A2999 RMK A01 T01320024  RH  048%=      5-min Rain = 0
KWOS 162337Z 01018G24KT 13/02 A30 RMK A01 T01300022  RH  048%=      5-min Rain = 0
KWOS 162338Z 02020KT 13/02 A2999 RMK A01 T01290023  RH  048%=      5-min Rain = 0
KWOS 162339Z 02017KT 13/02 A2999 RMK A01 T01290021  RH  048%=      5-min Rain = 0
KWOS 162340Z 02018G23KT 13/02 A2999 RMK A01 T01280022  RH  049%=      5-min Rain = 0
KWOS 162341Z 02019KT 13/02 A2999 RMK A01 T01280022  RH  048%=      5-min Rain = 0
KWOS 162342Z 03019KT 13/02 A30 RMK A01 T01270021  RH  048%=      5-min Rain = 0
KWOS 162343Z 03018G23KT 13/02 A30 RMK A01 T01270022  RH  049%=      5-min Rain = 0
KWOS 162344Z 02019G24KT 13/02 A30 RMK A01 T01270023  RH  049%=      5-min Rain = 0
KWOS 162345Z 02020G27KT 13/02 A30 RMK A01 T01260023  RH  049%=      5-min Rain = 0
KWOS 162346Z 02021G26KT 13/02 A30 RMK A01 T01250023  RH  049%=      5-min Rain = 0
KWOS 162347Z 03020G25KT 12/02 A30 RMK A01 T01240022  RH  050%=      5-min Rain = 0
KWOS 162348Z 03020G25KT 12/02 A30 RMK A01 T01240022  RH  050%=      5-min Rain = 0
KWOS 162349Z 03017G23KT 12/02 A30 RMK A01 T01230022  RH  050%=      5-min Rain = 0
KWOS 162350Z 03016G24KT 12/02 A30 RMK A01 T01230023  RH  050%=      5-min Rain = 0
KWOS 162351Z 03019G26KT 12/02 A30 RMK A01 T01230023  RH  050%=      5-min Rain = 0
KWOS 162352Z 02022G29KT 12/02 A3001 RMK A01 T01230022  RH  050%=      5-min Rain = 0
KWOS 162353Z 02023KT 12/02 A3001 RMK A01 T01220021  RH  050%=      5-min Rain = 0
KWOS 162354Z 02022KT 12/02 A3001 RMK A01 T01210020  RH  050%=      5-min Rain = 0
KWOS 162355Z 02019G27KT 12/02 A3001 RMK A01 T01200020  RH  050%=      5-min Rain = 0
KWOS 162356Z 02019G24KT 12/02 A3001 RMK A01 T01200021  RH  051%=      5-min Rain = 0
KWOS 162357Z 03018G23KT 12/02 A3001 RMK A01 T01200021  RH  051%=      5-min Rain = 0
KWOS 162358Z 03019G24KT 12/02 A3001 RMK A01 T01200022  RH  051%=      5-min Rain = 0
KWOS 162359Z 03020G26KT 12/02 A3001 RMK A01 T01200023  RH  052%=      5-min Rain = 0
KWOS 170000Z 03021G27KT 12/02 A3001 RMK A01 T01190023  RH  052%=      5-min Rain = 0
KWOS 170001Z 03020G26KT 12/02 A3001 RMK A01 T01180024  RH  052%=      5-min Rain = 0
KWOS 170002Z 03019G24KT 12/02 A3001 RMK A01 T01180024  RH  052%=      5-min Rain = 0
KWOS 170003Z 03018G23KT 12/02 A3001 RMK A01 T01170024  RH  053%=      5-min Rain = 0
KWOS 170004Z 03020G26KT 12/02 A3001 RMK A01 T01170024  RH  053%=      5-min Rain = 0
KWOS 170005Z 03019G25KT 12/02 A3001 RMK A01 T01160022  RH  053%=      5-min Rain = 0
KWOS 170006Z 04022KT 12/02 A3001 RMK A01 T01150021  RH  053%=      5-min Rain = 0
KWOS 170007Z 03021G27KT 11/02 A3001 RMK A01 T01140020  RH  053%=      5-min Rain = 0
KWOS 170008Z 04020G25KT 11/02 A3001 RMK A01 T01130021  RH  053%=      5-min Rain = 0
KWOS 170009Z 04017G22KT 11/02 A3001 RMK A01 T01130021  RH  053%=      5-min Rain = 0
KWOS 170010Z 04021G27KT 11/02 A3001 RMK A01 T01130021  RH  053%=      5-min Rain = 0
KWOS 170011Z 04020G26KT 11/02 A3001 RMK A01 T01130020  RH  052%=      5-min Rain = 0
KWOS 170012Z 04021G26KT 11/02 A3001 RMK A01 T01130019  RH  052%=      5-min Rain = 0
KWOS 170013Z 04019G26KT 11/02 A3001 RMK A01 T01130020  RH  053%=      5-min Rain = 0
KWOS 170014Z 04018G26KT 11/02 A3001 RMK A01 T01140020  RH  053%=      5-min Rain = 0
KWOS 170015Z 04022G28KT 11/02 A3001 RMK A01 T01140019  RH  052%=      5-min Rain = 0
KWOS 170016Z 04022G29KT 11/02 A3001 RMK A01 T01130018  RH  052%=      5-min Rain = 0
KWOS 170017Z 04020G27KT 11/02 A3001 RMK A01 T01120018  RH  052%=      5-min Rain = 0
KWOS 170018Z 04018G24KT 11/02 A3001 RMK A01 T01110017  RH  052%=      5-min Rain = 0
KWOS 170019Z 03021KT 11/02 A3001 RMK A01 T01110018  RH  053%=      5-min Rain = 0
KWOS 170020Z 03022KT 11/02 A3002 RMK A01 T01100017  RH  053%=      5-min Rain = 0
KWOS 170021Z 03018G24KT 11/02 A3002 RMK A01 T01100018  RH  053%=      5-min Rain = 0
KWOS 170022Z 03023G28KT 11/02 A3002 RMK A01 T01100018  RH  053%=      5-min Rain = 0
KWOS 170023Z 02023G29KT 11/02 A3002 RMK A01 T01090017  RH  053%=      5-min Rain = 0
KWOS 170024Z 02022G27KT 11/02 A3002 RMK A01 T01080016  RH  053%=      5-min Rain = 0
KWOS 170025Z 03020G26KT 11/02 A3002 RMK A01 T01080017  RH  053%=      5-min Rain = 0
KWOS 170026Z 03019G25KT 11/02 A3001 RMK A01 T01080017  RH  053%=      5-min Rain = 0
KWOS 170027Z 03021G27KT 11/02 A3001 RMK A01 T01080018  RH  054%=      5-min Rain = 0
KWOS 170028Z 03021G26KT 11/02 A3001 RMK A01 T01080017  RH  054%=      5-min Rain = 0
KWOS 170029Z 03021G26KT 11/02 A3001 RMK A01 T01070017  RH  054%=      5-min Rain = 0
KWOS 170030Z 03021G27KT 11/02 A3001 RMK A01 T01070017  RH  054%=      5-min Rain = 0
KWOS 170031Z 03023G28KT 11/02 A3001 RMK A01 T01070016  RH  053%=      5-min Rain = 0
KWOS 170032Z 03019G24KT 11/02 A3001 RMK A01 T01070015  RH  053%=      5-min Rain = 0
KWOS 170033Z 03019G26KT 11/02 A3001 RMK A01 T01070016  RH  053%=      5-min Rain = 0
KWOS 170034Z 02021G26KT 11/02 A3002 RMK A01 T01070016  RH  053%=      5-min Rain = 0
KWOS 170035Z 02021G26KT 11/02 A3002 RMK A01 T01070015  RH  053%=      5-min Rain = 0
KWOS 170036Z 03023G28KT 11/02 A3002 RMK A01 T01060016  RH  053%=      5-min Rain = 0
KWOS 170037Z 03024G30KT 11/01 A3002 RMK A01 T01050014  RH  053%=      5-min Rain = 0
KWOS 170038Z 03021KT 10/01 A3002 RMK A01 T01040014  RH  054%=      5-min Rain = 0
KWOS 170039Z 03020G26KT 10/02 A3002 RMK A01 T01030015  RH  054%=      5-min Rain = 0
KWOS 170040Z 03021G27KT 10/01 A3002 RMK A01 T01030014  RH  054%=      5-min Rain = 0
KWOS 170041Z 03022G28KT 10/01 A3002 RMK A01 T01030014  RH  054%=      5-min Rain = 0
KWOS 170042Z 03021KT 10/01 A3003 RMK A01 T01030013  RH  054%=      5-min Rain = 0
KWOS 170043Z 03019G24KT 10/01 A3003 RMK A01 T01020013  RH  054%=      5-min Rain = 0
KWOS 170044Z 03020G26KT 10/01 A3003 RMK A01 T01020014  RH  054%=      5-min Rain = 0
KWOS 170045Z 03022KT 10/01 A3003 RMK A01 T01020013  RH  054%=      5-min Rain = 0
KWOS 170046Z 03018G25KT 10/01 A3003 RMK A01 T01010013  RH  054%=      5-min Rain = 0
KWOS 170047Z 03020G25KT 10/01 A3003 RMK A01 T01000013  RH  054%=      5-min Rain = 0
KWOS 170048Z 03022KT 10/01 A3003 RMK A01 T01000011  RH  054%=      5-min Rain = 0
KWOS 170049Z 03021KT 10/01 A3003 RMK A01 T00990011  RH  054%=      5-min Rain = 0
KWOS 170050Z 03018KT 10/01 A3004 RMK A01 T00980011  RH  055%=      5-min Rain = 0
KWOS 170051Z 03016G22KT 10/01 A3004 RMK A01 T00980012  RH  055%=      5-min Rain = 0
KWOS 170052Z 03016G21KT 10/01 A3004 RMK A01 T00980012  RH  055%=      5-min Rain = 0
KWOS 170053Z 03018G25KT 10/01 A3004 RMK A01 T00970012  RH  055%=      5-min Rain = 0
KWOS 170054Z 03018G25KT 10/01 A3004 RMK A01 T00970012  RH  055%=      5-min Rain = 0
KWOS 170055Z 03019G26KT 10/01 A3004 RMK A01 T00960012  RH  056%=      5-min Rain = 0
KWOS 170056Z 03020KT 10/01 A3005 RMK A01 T00950011  RH  056%=      5-min Rain = 0
KWOS 170057Z 02019G26KT 09/01 A3005 RMK A01 T00940011  RH  056%=      5-min Rain = 0
KWOS 170058Z 03018G26KT 09/01 A3005 RMK A01 T00940012  RH  057%=      5-min Rain = 0
KWOS 170059Z 03019G24KT 09/01 A3005 RMK A01 T00930012  RH  057%=      5-min Rain = 0
KWOS 170100Z 03015KT 09/01 A3005 RMK A01 T00930012  RH  057%=      5-min Rain = 0
KWOS 170101Z 04016G23KT 09/01 A3005 RMK A01 T00920013  RH  058%=      5-min Rain = 0
KWOS 170102Z 04017KT 09/01 A3005 RMK A01 T00920013  RH  057%=      5-min Rain = 0
KWOS 170103Z 03016KT 09/01 A3005 RMK A01 T00920012  RH  057%=      5-min Rain = 0
KWOS 170104Z 04016G23KT 09/01 A3005 RMK A01 T00920013  RH  058%=      5-min Rain = 0
KWOS 170105Z 03015G20KT 09/01 A3005 RMK A01 T00910011  RH  057%=      5-min Rain = 0
KWOS 170106Z 03013G18KT 09/01 A3006 RMK A01 T00910012  RH  058%=      5-min Rain = 0
KWOS 170107Z 04015KT 09/01 A3006 RMK A01 T00910013  RH  058%=      5-min Rain = 0
KWOS 170108Z 04015G20KT 09/01 A3006 RMK A01 T00900013  RH  058%=      5-min Rain = 0
KWOS 170109Z 04019G26KT 09/01 A3006 RMK A01 T00900012  RH  058%=      5-min Rain = 0
KWOS 170110Z 04020G25KT 09/01 A3006 RMK A01 T00890011  RH  058%=      5-min Rain = 0
KWOS 170111Z 04019KT 09/01 A3006 RMK A01 T00880011  RH  059%=      5-min Rain = 0
KWOS 170112Z 04019KT 09/01 A3005 RMK A01 T00870011  RH  059%=      5-min Rain = 0
KWOS 170113Z 04017G22KT 09/01 A3005 RMK A01 T00870010  RH  059%=      5-min Rain = 0
KWOS 170114Z 04019G24KT 09/01 A3005 RMK A01 T00870010  RH  059%=      5-min Rain = 0
KWOS 170115Z 04022G28KT 09/01 A3005 RMK A01 T00860008  RH  058%=      5-min Rain = 0
KWOS 170116Z 03020G26KT 09/01 A3005 RMK A01 T00860008  RH  058%=      5-min Rain = 0
KWOS 170117Z 03020G26KT 09/01 A3005 RMK A01 T00850008  RH  058%=      5-min Rain = 0
KWOS 170118Z 03018G25KT 09/01 A3005 RMK A01 T00850008  RH  058%=      5-min Rain = 0
KWOS 170119Z 03018KT 09/01 A3005 RMK A01 T00850009  RH  059%=      5-min Rain = 0
KWOS 170120Z 02019KT 09/01 A3005 RMK A01 T00850009  RH  059%=      5-min Rain = 0
KWOS 170121Z 03018G25KT 09/01 A3005 RMK A01 T00850010  RH  059%=      5-min Rain = 0
KWOS 170122Z 03019G24KT 09/01 A3005 RMK A01 T00850010  RH  059%=      5-min Rain = 0
KWOS 170123Z 03020KT 09/01 A3005 RMK A01 T00850009  RH  059%=      5-min Rain = 0
KWOS 170124Z 03019G26KT 08/01 A3005 RMK A01 T00840009  RH  059%=      5-min Rain = 0
KWOS 170125Z 03018KT 08/01 A3005 RMK A01 T00840009  RH  059%=      5-min Rain = 0
KWOS 170126Z 03020G26KT 08/01 A3005 RMK A01 T00840010  RH  060%=      5-min Rain = 0
KWOS 170127Z 03020G25KT 08/01 A3005 RMK A01 T00840009  RH  060%=      5-min Rain = 0
KWOS 170128Z 02019G25KT 08/01 A3005 RMK A01 T00830009  RH  060%=      5-min Rain = 0
KWOS 170129Z 02020G26KT 08/01 A3005 RMK A01 T00830009  RH  060%=      5-min Rain = 0
KWOS 170130Z 02019KT 08/01 A3005 RMK A01 T00830010  RH  060%=      5-min Rain = 0
KWOS 170131Z 03018G24KT 08/01 A3005 RMK A01 T00830010  RH  060%=      5-min Rain = 0
KWOS 170132Z 03018G24KT 08/01 A3005 RMK A01 T00830011  RH  061%=      5-min Rain = 0
KWOS 170133Z 03017G23KT 08/01 A3005 RMK A01 T00830011  RH  061%=      5-min Rain = 0
KWOS 170134Z 04017G22KT 08/01 A3005 RMK A01 T00830012  RH  061%=      5-min Rain = 0
KWOS 170135Z 04019G25KT 08/01 A3005 RMK A01 T00820011  RH  061%=      5-min Rain = 0
KWOS 170136Z 04017G22KT 08/01 A3006 RMK A01 T00820010  RH  061%=      5-min Rain = 0
KWOS 170137Z 04015G23KT 08/01 A3006 RMK A01 T00810011  RH  061%=      5-min Rain = 0
KWOS 170138Z 04015KT 08/01 A3006 RMK A01 T00810011  RH  061%=      5-min Rain = 0
KWOS 170139Z 03016G24KT 08/01 A3006 RMK A01 T00800011  RH  062%=      5-min Rain = 0
KWOS 170140Z 03018KT 08/01 A3006 RMK A01 T00800011  RH  062%=      5-min Rain = 0
KWOS 170141Z 04017KT 08/01 A3006 RMK A01 T00800011  RH  062%=      5-min Rain = 0
KWOS 170142Z 04016G22KT 08/01 A3006 RMK A01 T00800011  RH  062%=      5-min Rain = 0
KWOS 170143Z 04018KT 08/01 A3006 RMK A01 T00790011  RH  062%=      5-min Rain = 0
KWOS 170144Z 04015KT 08/01 A3006 RMK A01 T00790011  RH  062%=      5-min Rain = 0
KWOS 170145Z 03016G22KT 08/01 A3006 RMK A01 T00790011  RH  062%=      5-min Rain = 0
KWOS 170146Z 04020KT 08/01 A3006 RMK A01 T00790012  RH  063%=      5-min Rain = 0
KWOS 170147Z 04020KT 08/01 A3006 RMK A01 T00790011  RH  062%=      5-min Rain = 0
KWOS 170148Z 04016G23KT 08/01 A3007 RMK A01 T00780010  RH  062%=      5-min Rain = 0
KWOS 170149Z 04015G21KT 08/01 A3007 RMK A01 T00780011  RH  062%=      5-min Rain = 0
KWOS 170150Z 03014G19KT 08/01 A3007 RMK A01 T00780010  RH  062%=      5-min Rain = 0
KWOS 170151Z 03016KT 08/01 A3007 RMK A01 T00780011  RH  063%=      5-min Rain = 0
KWOS 170152Z 03018G23KT 08/01 A3007 RMK A01 T00780011  RH  063%=      5-min Rain = 0
KWOS 170153Z 03018KT 08/01 A3007 RMK A01 T00780011  RH  063%=      5-min Rain = 0
KWOS 170154Z 03014KT 08/01 A3007 RMK A01 T00780011  RH  063%=      5-min Rain = 0
KWOS 170155Z 03015G22KT 08/01 A3007 RMK A01 T00770011  RH  063%=      5-min Rain = 0
KWOS 170156Z 03017G22KT 08/01 A3007 RMK A01 T00770011  RH  063%=      5-min Rain = 0
KWOS 170157Z 03019G26KT 08/01 A3007 RMK A01 T00770009  RH  062%=      5-min Rain = 0
KWOS 170158Z 03019G25KT 08/01 A3007 RMK A01 T00770009  RH  062%=      5-min Rain = 0
KWOS 170159Z 04019G25KT 08/01 A3007 RMK A01 T00760007  RH  062%=      5-min Rain = 0
KWOS 170200Z 03020G25KT 08/01 A3007 RMK A01 T00760007  RH  062%=      5-min Rain = 0
KWOS 170201Z 03019KT 08/01 A3008 RMK A01 T00760007  RH  062%=      5-min Rain = 0
KWOS 170202Z 03017G22KT 08/01 A3008 RMK A01 T00760007  RH  062%=      5-min Rain = 0
KWOS 170203Z 03020G25KT 08/01 A3008 RMK A01 T00760008  RH  062%=      5-min Rain = 0
KWOS 170204Z 03020G26KT 08/01 A3008 RMK A01 T00760007  RH  062%=      5-min Rain = 0
KWOS 170205Z 03020KT 08/01 A3008 RMK A01 T00760007  RH  062%=      5-min Rain = 0
KWOS 170206Z 03019G24KT 08/01 A3009 RMK A01 T00750008  RH  062%=      5-min Rain = 0
KWOS 170207Z 03018G23KT 08/01 A3009 RMK A01 T00750008  RH  062%=      5-min Rain = 0
KWOS 170208Z 03015G20KT 08/01 A3009 RMK A01 T00750008  RH  062%=      5-min Rain = 0
KWOS 170209Z 03017KT 08/01 A3009 RMK A01 T00750009  RH  063%=      5-min Rain = 0
KWOS 170210Z 02016KT 08/01 A3009 RMK A01 T00750009  RH  063%=      5-min Rain = 0
KWOS 170211Z 03017KT 08/01 A3009 RMK A01 T00750009  RH  063%=      5-min Rain = 0
KWOS 170212Z 03017KT 08/01 A3009 RMK A01 T00750009  RH  063%=      5-min Rain = 0
KWOS 170213Z 03017G22KT 08/01 A3009 RMK A01 T00750010  RH  063%=      5-min Rain = 0
KWOS 170214Z 02017G22KT 08/01 A3009 RMK A01 T00750010  RH  063%=      5-min Rain = 0
KWOS 170215Z 03018KT 08/01 A301 RMK A01 T00750009  RH  063%=      5-min Rain = 0
KWOS 170216Z 03016KT 08/01 A301 RMK A01 T00750009  RH  063%=      5-min Rain = 0
KWOS 170217Z 03013KT 08/01 A301 RMK A01 T00750009  RH  063%=      5-min Rain = 0
KWOS 170218Z 03015KT 08/01 A301 RMK A01 T00750010  RH  063%=      5-min Rain = 0
KWOS 170219Z 02017G23KT 08/01 A301 RMK A01 T00750009  RH  063%=      5-min Rain = 0
KWOS 170220Z 03019G27KT 08/01 A301 RMK A01 T00750008  RH  063%=      5-min Rain = 0
KWOS 170221Z 03021G26KT 08/01 A301 RMK A01 T00750008  RH  062%=      5-min Rain = 0
KWOS 170222Z 03021KT 07/01 A301 RMK A01 T00740007  RH  062%=      5-min Rain = 0
KWOS 170223Z 03017G24KT 07/01 A301 RMK A01 T00740007  RH  062%=      5-min Rain = 0
KWOS 170224Z 03017G23KT 07/01 A301 RMK A01 T00740008  RH  063%=      5-min Rain = 0
KWOS 170225Z 03021KT 07/01 A301 RMK A01 T00740008  RH  063%=      5-min Rain = 0
KWOS 170226Z 02018KT 07/01 A301 RMK A01 T00740008  RH  063%=      5-min Rain = 0
KWOS 170227Z 02016G22KT 07/01 A301 RMK A01 T00740008  RH  063%=      5-min Rain = 0
KWOS 170228Z 02021G26KT 07/01 A3011 RMK A01 T00740009  RH  063%=      5-min Rain = 0
KWOS 170229Z 02021G27KT 07/01 A3011 RMK A01 T00730008  RH  063%=      5-min Rain = 0
KWOS 170230Z 02019G25KT 07/01 A3011 RMK A01 T00730008  RH  063%=      5-min Rain = 0
KWOS 170231Z 02021KT 07/01 A3011 RMK A01 T00730008  RH  064%=      5-min Rain = 0
KWOS 170232Z 02021G26KT 07/01 A3011 RMK A01 T00730008  RH  063%=      5-min Rain = 0
KWOS 170233Z 02019KT 07/01 A3011 RMK A01 T00720007  RH  063%=      5-min Rain = 0
KWOS 170234Z 03020G26KT 07/01 A3011 RMK A01 T00720006  RH  063%=      5-min Rain = 0
KWOS 170235Z 03020G25KT 07/01 A3011 RMK A01 T00720006  RH  063%=      5-min Rain = 0
KWOS 170236Z 02016G22KT 07/01 A3011 RMK A01 T00710006  RH  063%=      5-min Rain = 0
KWOS 170237Z 02019G26KT 07/01 A3011 RMK A01 T00710007  RH  064%=      5-min Rain = 0
KWOS 170238Z 02019G24KT 07/01 A3011 RMK A01 T00710006  RH  063%=      5-min Rain = 0
KWOS 170239Z 02019KT 07/01 A3011 RMK A01 T00710006  RH  064%=      5-min Rain = 0
KWOS 170240Z 02018KT 07/01 A3011 RMK A01 T00700006  RH  064%=      5-min Rain = 0
KWOS 170241Z 02020G29KT 07/01 A3011 RMK A01 T00700007  RH  064%=      5-min Rain = 0
KWOS 170242Z 02022G28KT 07/01 A3011 RMK A01 T00700006  RH  064%=      5-min Rain = 0
KWOS 170243Z 03021G26KT 07/01 A3011 RMK A01 T00700005  RH  064%=      5-min Rain = 0
KWOS 170244Z 02021G27KT 07/01 A3011 RMK A01 T00700005  RH  064%=      5-min Rain = 0
KWOS 170245Z 03022G27KT 07/01 A3011 RMK A01 T00690005  RH  063%=      5-min Rain = 0
KWOS 170246Z 03020G28KT 07/00 A3011 RMK A01 T00690004  RH  063%=      5-min Rain = 0
KWOS 170247Z 02019G24KT 07/01 A3011 RMK A01 T00690005  RH  063%=      5-min Rain = 0
KWOS 170248Z 03019G25KT 07/01 A3011 RMK A01 T00690005  RH  064%=      5-min Rain = 0
KWOS 170249Z 02019G24KT 07/01 A3011 RMK A01 T00690005  RH  064%=      5-min Rain = 0
KWOS 170250Z 02019G26KT 07/01 A3011 RMK A01 T00690006  RH  064%=      5-min Rain = 0
KWOS 170251Z 02020G25KT 07/01 A3011 RMK A01 T00680006  RH  064%=      5-min Rain = 0
KWOS 170252Z 02020KT 07/01 A3011 RMK A01 T00680006  RH  064%=      5-min Rain = 0
KWOS 170253Z 02017G23KT 07/01 A3011 RMK A01 T00680006  RH  065%=      5-min Rain = 0
KWOS 170254Z 02021G26KT 07/01 A3011 RMK A01 T00680007  RH  065%=      5-min Rain = 0
KWOS 170255Z 02020KT 07/01 A3011 RMK A01 T00680006  RH  065%=      5-min Rain = 0
KWOS 170256Z 02021KT 07/01 A3011 RMK A01 T00680006  RH  065%=      5-min Rain = 0
KWOS 170257Z 02018G23KT 07/01 A3011 RMK A01 T00680006  RH  065%=      5-min Rain = 0
KWOS 170258Z 02015G20KT 07/01 A3011 RMK A01 T00680007  RH  065%=      5-min Rain = 0
KWOS 170259Z 02016G21KT 07/01 A3011 RMK A01 T00670007  RH  066%=      5-min Rain = 0
KWOS 170300Z 02018KT 07/01 A3011 RMK A01 T00670007  RH  066%=      5-min Rain = 0
KWOS 170301Z 03017G27KT 07/01 A3011 RMK A01 T00670008  RH  066%=      5-min Rain = 0
KWOS 170302Z 02021G26KT 07/01 A3011 RMK A01 T00670007  RH  066%=      5-min Rain = 0
KWOS 170303Z 03017KT 07/01 A3011 RMK A01 T00670006  RH  065%=      5-min Rain = 0
KWOS 170304Z 02017KT 07/01 A3011 RMK A01 T00670007  RH  066%=      5-min Rain = 0
KWOS 170305Z 02015KT 07/01 A3011 RMK A01 T00660007  RH  066%=      5-min Rain = 0
KWOS 170306Z 02016KT 07/01 A3011 RMK A01 T00660007  RH  066%=      5-min Rain = 0
KWOS 170307Z 03021G28KT 07/01 A3011 RMK A01 T00660007  RH  066%=      5-min Rain = 0
KWOS 170308Z 03021G26KT 07/01 A3011 RMK A01 T00660006  RH  065%=      5-min Rain = 0
KWOS 170309Z 02019G24KT 07/01 A3011 RMK A01 T00660005  RH  065%=      5-min Rain = 0
KWOS 170310Z 02018G25KT 07/01 A3012 RMK A01 T00660006  RH  066%=      5-min Rain = 0
KWOS 170311Z 02018G23KT 07/01 A3012 RMK A01 T00650006  RH  066%=      5-min Rain = 0
KWOS 170312Z 03019G24KT 07/01 A3012 RMK A01 T00650006  RH  066%=      5-min Rain = 0
KWOS 170313Z 02020G25KT 07/01 A3012 RMK A01 T00650005  RH  066%=      5-min Rain = 0
KWOS 170314Z 02017G22KT 07/01 A3012 RMK A01 T00650006  RH  066%=      5-min Rain = 0
KWOS 170315Z 03017G23KT 07/01 A3012 RMK A01 T00650006  RH  066%=      5-min Rain = 0
KWOS 170316Z 02022KT 06/01 A3012 RMK A01 T00640006  RH  066%=      5-min Rain = 0
KWOS 170317Z 02021KT 06/01 A3012 RMK A01 T00640005  RH  066%=      5-min Rain = 0
KWOS 170318Z 02020KT 06/01 A3012 RMK A01 T00640005  RH  066%=      5-min Rain = 0
KWOS 170319Z 02017G22KT 06/01 A3012 RMK A01 T00640005  RH  066%=      5-min Rain = 0
KWOS 170320Z 02016G21KT 06/01 A3012 RMK A01 T00640006  RH  066%=      5-min Rain = 0
KWOS 170321Z 03016KT 06/01 A3012 RMK A01 T00640006  RH  066%=      5-min Rain = 0
KWOS 170322Z 03016G21KT 06/01 A3012 RMK A01 T00640006  RH  066%=      5-min Rain = 0
KWOS 170323Z 02019G26KT 06/01 A3012 RMK A01 T00640006  RH  066%=      5-min Rain = 0
KWOS 170324Z 02021G26KT 06/01 A3012 RMK A01 T00640006  RH  066%=      5-min Rain = 0
KWOS 170325Z 02017G22KT 06/01 A3013 RMK A01 T00640005  RH  066%=      5-min Rain = 0
KWOS 170326Z 02016KT 06/01 A3013 RMK A01 T00640006  RH  066%=      5-min Rain = 0
KWOS 170327Z 02015KT 06/01 A3013 RMK A01 T00640006  RH  066%=      5-min Rain = 0
KWOS 170328Z 02018G24KT 06/01 A3013 RMK A01 T00640006  RH  066%=      5-min Rain = 0
KWOS 170329Z 02018G24KT 06/01 A3013 RMK A01 T00640005  RH  066%=      5-min Rain = 0
KWOS 170330Z 02016G21KT 06/01 A3013 RMK A01 T00640005  RH  066%=      5-min Rain = 0
KWOS 170331Z 02018G23KT 06/01 A3013 RMK A01 T00640005  RH  066%=      5-min Rain = 0
KWOS 170332Z 02018KT 06/01 A3013 RMK A01 T00630005  RH  066%=      5-min Rain = 0
KWOS 170333Z 03017G24KT 06/01 A3013 RMK A01 T00630005  RH  066%=      5-min Rain = 0
KWOS 170334Z 03020G28KT 06/00 A3013 RMK A01 T00630004  RH  066%=      5-min Rain = 0
KWOS 170335Z 03021G26KT 06/00 A3013 RMK A01 T00630003  RH  065%=      5-min Rain = 0
KWOS 170336Z 03017G24KT 06/00 A3013 RMK A01 T00630003  RH  065%=      5-min Rain = 0
KWOS 170337Z 03020KT 06/00 A3013 RMK A01 T00620003  RH  066%=      5-min Rain = 0
KWOS 170338Z 03017G22KT 06/00 A3013 RMK A01 T00620002  RH  066%=      5-min Rain = 0
KWOS 170339Z 03019G25KT 06/00 A3013 RMK A01 T00620002  RH  066%=      5-min Rain = 0
KWOS 170340Z 03021G26KT 06/00 A3013 RMK A01 T00620002  RH  066%=      5-min Rain = 0
KWOS 170341Z 02018G23KT 06/00 A3013 RMK A01 T00620001  RH  065%=      5-min Rain = 0
KWOS 170342Z 03019G24KT 06/00 A3013 RMK A01 T00610001  RH  065%=      5-min Rain = 0
KWOS 170343Z 03020KT 06/00 A3013 RMK A01 T00610001  RH  065%=      5-min Rain = 0
KWOS 170344Z 03022G27KT 06/00 A3013 RMK A01 T00610000  RH  065%=      5-min Rain = 0
KWOS 170345Z 02022G28KT 06/M00 A3013 RMK A01 T00611001  RH  064%=      5-min Rain = 0
KWOS 170346Z 03022G30KT 06/M00 A3013 RMK A01 T00611002  RH  064%=      5-min Rain = 0
KWOS 170347Z 02022G27KT 06/M00 A3013 RMK A01 T00611001  RH  064%=      5-min Rain = 0
KWOS 170348Z 03019G26KT 06/M00 A3013 RMK A01 T00611001  RH  065%=      5-min Rain = 0
KWOS 170349Z 03020KT 06/M00 A3013 RMK A01 T00611001  RH  064%=      5-min Rain = 0
KWOS 170350Z 02017KT 06/M00 A3013 RMK A01 T00611001  RH  064%=      5-min Rain = 0
KWOS 170351Z 02017KT 06/00 A3013 RMK A01 T006100-0  RH  065%=      5-min Rain = 0
KWOS 170352Z 02015KT 06/00 A3013 RMK A01 T006000-0  RH  065%=      5-min Rain = 0
KWOS 170353Z 03014KT 06/00 A3013 RMK A01 T00600001  RH  066%=      5-min Rain = 0
KWOS 170354Z 03013G21KT 06/00 A3013 RMK A01 T00600001  RH  066%=      5-min Rain = 0
KWOS 170355Z 03017KT 06/00 A3013 RMK A01 T00590001  RH  066%=      5-min Rain = 0
KWOS 170356Z 02016G22KT 06/00 A3013 RMK A01 T00590001  RH  066%=      5-min Rain = 0
KWOS 170357Z 03019KT 06/00 A3013 RMK A01 T00590000  RH  066%=      5-min Rain = 0
KWOS 170358Z 02017G24KT 06/00 A3013 RMK A01 T006000-0  RH  065%=      5-min Rain = 0
KWOS 170359Z 03017KT 06/00 A3013 RMK A01 T00600000  RH  066%=      5-min Rain = 0
KWOS 170400Z 03016KT 06/00 A3013 RMK A01 T00600000  RH  066%=      5-min Rain = 0
KWOS 170401Z 03014KT 06/00 A3013 RMK A01 T00600000  RH  066%=      5-min Rain = 0
KWOS 170402Z 03014KT 06/00 A3013 RMK A01 T00600001  RH  066%=      5-min Rain = 0
KWOS 170403Z 03016KT 06/00 A3013 RMK A01 T00600001  RH  066%=      5-min Rain = 0
KWOS 170404Z 03014KT 06/00 A3013 RMK A01 T00600001  RH  066%=      5-min Rain = 0
KWOS 170405Z 03014KT 06/00 A3013 RMK A01 T00600001  RH  066%=      5-min Rain = 0
KWOS 170406Z 03014KT 06/00 A3013 RMK A01 T00600001  RH  066%=      5-min Rain = 0
KWOS 170407Z 03015KT 06/00 A3013 RMK A01 T00600001  RH  066%=      5-min Rain = 0
KWOS 170408Z 03014KT 06/00 A3013 RMK A01 T00600001  RH  066%=      5-min Rain = 0
KWOS 170409Z 03011G18KT 06/00 A3014 RMK A01 T00600001  RH  066%=      5-min Rain = 0
KWOS 170410Z 03012KT 06/00 A3014 RMK A01 T00590001  RH  066%=      5-min Rain = 0
KWOS 170411Z 04013G18KT 06/00 A3013 RMK A01 T00590001  RH  067%=      5-min Rain = 0
KWOS 170412Z 04014KT 06/00 A3013 RMK A01 T00590001  RH  066%=      5-min Rain = 0
KWOS 170413Z 04015KT 06/00 A3013 RMK A01 T00590001  RH  066%=      5-min Rain = 0
KWOS 170414Z 04017G22KT 06/00 A3013 RMK A01 T00580001  RH  066%=      5-min Rain = 0
KWOS 170415Z 03018KT 06/00 A3013 RMK A01 T00580000  RH  066%=      5-min Rain = 0
KWOS 170416Z 03015G21KT 06/00 A3013 RMK A01 T00580001  RH  066%=      5-min Rain = 0
KWOS 170417Z 03016KT 06/00 A3013 RMK A01 T00580001  RH  067%=      5-min Rain = 0
KWOS 170418Z 04016KT 06/00 A3013 RMK A01 T00580001  RH  067%=      5-min Rain = 0
KWOS 170419Z 03015G20KT 06/00 A3013 RMK A01 T00580001  RH  067%=      5-min Rain = 0
KWOS 170420Z 03017KT 06/00 A3013 RMK A01 T00580001  RH  067%=      5-min Rain = 0
KWOS 170421Z 03015KT 06/00 A3013 RMK A01 T00580001  RH  067%=      5-min Rain = 0
KWOS 170422Z 04014KT 06/00 A3013 RMK A01 T00580001  RH  067%=      5-min Rain = 0
KWOS 170423Z 04013KT 06/00 A3013 RMK A01 T00580001  RH  067%=      5-min Rain = 0
KWOS 170424Z 03012KT 06/00 A3013 RMK A01 T00580002  RH  067%=      5-min Rain = 0
KWOS 170425Z 04013G18KT 06/00 A3013 RMK A01 T00570002  RH  068%=      5-min Rain = 0
KWOS 170426Z 03014KT 06/00 A3013 RMK A01 T00570002  RH  068%=      5-min Rain = 0
KWOS 170427Z 03013G18KT 06/00 A3013 RMK A01 T00570002  RH  067%=      5-min Rain = 0
KWOS 170428Z 03014KT 06/00 A3013 RMK A01 T00570002  RH  068%=      5-min Rain = 0
KWOS 170429Z 03015KT 06/00 A3013 RMK A01 T00570002  RH  067%=      5-min Rain = 0
KWOS 170430Z 03015KT 06/00 A3013 RMK A01 T00570001  RH  067%=      5-min Rain = 0
KWOS 170431Z 03015G21KT 06/00 A3013 RMK A01 T00580001  RH  067%=      5-min Rain = 0
KWOS 170432Z 03015KT 06/00 A3013 RMK A01 T00570001  RH  067%=      5-min Rain = 0
KWOS 170433Z 03014KT 06/00 A3013 RMK A01 T00580001  RH  067%=      5-min Rain = 0
KWOS 170434Z 03011KT 06/00 A3014 RMK A01 T00580001  RH  067%=      5-min Rain = 0
KWOS 170435Z 03012KT 06/00 A3013 RMK A01 T00580002  RH  067%=      5-min Rain = 0
KWOS 170436Z 03011KT 06/00 A3013 RMK A01 T00570002  RH  067%=      5-min Rain = 0
KWOS 170437Z 03014KT 06/00 A3013 RMK A01 T00570002  RH  067%=      5-min Rain = 0
KWOS 170438Z 03013KT 06/00 A3013 RMK A01 T00570001  RH  067%=      5-min Rain = 0
KWOS 170439Z 03014KT 06/00 A3013 RMK A01 T00570001  RH  067%=      5-min Rain = 0
KWOS 170440Z 03014KT 06/00 A3013 RMK A01 T00570001  RH  067%=      5-min Rain = 0
KWOS 170441Z 03014KT 06/00 A3013 RMK A01 T00570000  RH  067%=      5-min Rain = 0
KWOS 170442Z 03017G22KT 06/00 A3013 RMK A01 T00570000  RH  067%=      5-min Rain = 0
KWOS 170443Z 02017KT 06/M00 A3013 RMK A01 T00571001  RH  066%=      5-min Rain = 0
KWOS 170444Z 03018KT 06/M00 A3013 RMK A01 T00581001  RH  066%=      5-min Rain = 0
KWOS 170445Z 03016KT 06/M00 A3013 RMK A01 T00581001  RH  066%=      5-min Rain = 0
KWOS 170446Z 03015KT 06/M00 A3013 RMK A01 T00581001  RH  066%=      5-min Rain = 0
KWOS 170447Z 03013G18KT 06/M00 A3013 RMK A01 T00581001  RH  066%=      5-min Rain = 0
KWOS 170448Z 03012KT 06/00 A3013 RMK A01 T005800-0  RH  066%=      5-min Rain = 0
KWOS 170449Z 03018G23KT 06/00 A3013 RMK A01 T005800-0  RH  066%=      5-min Rain = 0
KWOS 170450Z 02017G22KT 06/M00 A3014 RMK A01 T00571002  RH  066%=      5-min Rain = 0
KWOS 170451Z 03019G25KT 06/M00 A3013 RMK A01 T00571002  RH  065%=      5-min Rain = 0
KWOS 170452Z 03015G21KT 06/M00 A3013 RMK A01 T00571003  RH  065%=      5-min Rain = 0
KWOS 170453Z 03017G22KT 06/M00 A3014 RMK A01 T00571002  RH  066%=      5-min Rain = 0
KWOS 170454Z 03015KT 06/M00 A3014 RMK A01 T00581002  RH  066%=      5-min Rain = 0
KWOS 170455Z 03018KT 06/M00 A3014 RMK A01 T00571002  RH  066%=      5-min Rain = 0
KWOS 170456Z 03015G20KT 06/M00 A3014 RMK A01 T00571002  RH  066%=      5-min Rain = 0
KWOS 170457Z 03015G21KT 06/M00 A3014 RMK A01 T00571002  RH  066%=      5-min Rain = 0
KWOS 170458Z 03014KT 06/M00 A3014 RMK A01 T00571001  RH  066%=      5-min Rain = 0
KWOS 170459Z 03013KT 06/M00 A3014 RMK A01 T00571001  RH  066%=      5-min Rain = 0

Page generated in 0.0637 seconds.